<?xml version="1.0" encoding="UTF-8" standalone="no" ?>
<gpx xmlns="http://www.topografix.com/GPX/1/1" xmlns:xsi="http://www.w3.org/2001/XMLSchema-instance" xsi:schemaLocation="http://www.topografix.com/GPX/1/1 http://www.topografix.com/GPX/1/1/gpx.xsd" version="1.1" creator="VisuGPX - https://www.visugpx.com">
  <metadata>
    <name>Yffiniac Hillion 9,85km</name>
    <desc><![CDATA[Un parcours qui démarre de la salle omnisports d'Yffiniac pour ensuite rejoindre très vite la commune d'Hillion. Découvrez l'anse d´Yffiniac, recouvrant 700 hectares de vase, de sable, de prés-salés (100 ha), entre la pointe de Cesson à l´ouest et la pointe des guettes à l´est. Le fond de la Baie, comme il est appelé, est formé aujourd'hui des trois communes voisines de Hillion, Yffiniac et Langueux. L'endroit, un des principaux sites d'hivernage en Bretagne pour les oiseaux, fait également partie du réseau Natura 2000 (préservation de la diversité de la nature).
]]></desc>
  </metadata>
  <trk>
    <name><![CDATA[25 janv. 2020 15:02:53]]></name>
    <trkseg>
      <trkpt lat="48.48273" lon="-2.67158">
        <ele>64</ele>
        <time>2020-01-25T14:02:57.340Z</time>
      </trkpt>
      <trkpt lat="48.48273" lon="-2.67158">
        <ele>64</ele>
        <time>2020-01-25T14:02:57.340Z</time>
      </trkpt>
      <trkpt lat="48.4828" lon="-2.67147">
        <ele>60</ele>
        <time>2020-01-25T14:03:05.000Z</time>
      </trkpt>
      <trkpt lat="48.48285" lon="-2.67135">
        <ele>54</ele>
        <time>2020-01-25T14:03:13.000Z</time>
      </trkpt>
      <trkpt lat="48.48287" lon="-2.67119">
        <ele>55</ele>
        <time>2020-01-25T14:03:21.000Z</time>
      </trkpt>
      <trkpt lat="48.48288" lon="-2.67105">
        <ele>57</ele>
        <time>2020-01-25T14:03:28.000Z</time>
      </trkpt>
      <trkpt lat="48.48292" lon="-2.6709">
        <ele>57</ele>
        <time>2020-01-25T14:03:35.000Z</time>
      </trkpt>
      <trkpt lat="48.48293" lon="-2.67076">
        <ele>59</ele>
        <time>2020-01-25T14:03:41.000Z</time>
      </trkpt>
      <trkpt lat="48.48294" lon="-2.6706">
        <ele>60</ele>
        <time>2020-01-25T14:03:48.000Z</time>
      </trkpt>
      <trkpt lat="48.48297" lon="-2.67045">
        <ele>60</ele>
        <time>2020-01-25T14:03:55.000Z</time>
      </trkpt>
      <trkpt lat="48.48298" lon="-2.67031">
        <ele>62</ele>
        <time>2020-01-25T14:04:02.000Z</time>
      </trkpt>
      <trkpt lat="48.483" lon="-2.67016">
        <ele>62</ele>
        <time>2020-01-25T14:04:09.000Z</time>
      </trkpt>
      <trkpt lat="48.48302" lon="-2.67002">
        <ele>64</ele>
        <time>2020-01-25T14:04:16.000Z</time>
      </trkpt>
      <trkpt lat="48.48306" lon="-2.66988">
        <ele>68</ele>
        <time>2020-01-25T14:04:24.000Z</time>
      </trkpt>
      <trkpt lat="48.48312" lon="-2.66975">
        <ele>67</ele>
        <time>2020-01-25T14:04:33.000Z</time>
      </trkpt>
      <trkpt lat="48.48318" lon="-2.66986">
        <ele>65</ele>
        <time>2020-01-25T14:04:46.000Z</time>
      </trkpt>
      <trkpt lat="48.48326" lon="-2.66994">
        <ele>63</ele>
        <time>2020-01-25T14:04:53.000Z</time>
      </trkpt>
      <trkpt lat="48.48335" lon="-2.66997">
        <ele>63</ele>
        <time>2020-01-25T14:05:00.000Z</time>
      </trkpt>
      <trkpt lat="48.48344" lon="-2.66999">
        <ele>62</ele>
        <time>2020-01-25T14:05:07.000Z</time>
      </trkpt>
      <trkpt lat="48.48353" lon="-2.67004">
        <ele>62</ele>
        <time>2020-01-25T14:05:14.000Z</time>
      </trkpt>
      <trkpt lat="48.48361" lon="-2.67011">
        <ele>61</ele>
        <time>2020-01-25T14:05:20.000Z</time>
      </trkpt>
      <trkpt lat="48.48371" lon="-2.67014">
        <ele>61</ele>
        <time>2020-01-25T14:05:27.000Z</time>
      </trkpt>
      <trkpt lat="48.4838" lon="-2.67016">
        <ele>59</ele>
        <time>2020-01-25T14:05:33.000Z</time>
      </trkpt>
      <trkpt lat="48.48389" lon="-2.67016">
        <ele>59</ele>
        <time>2020-01-25T14:05:39.000Z</time>
      </trkpt>
      <trkpt lat="48.48398" lon="-2.67019">
        <ele>59</ele>
        <time>2020-01-25T14:05:45.000Z</time>
      </trkpt>
      <trkpt lat="48.48408" lon="-2.67023">
        <ele>61</ele>
        <time>2020-01-25T14:05:52.000Z</time>
      </trkpt>
      <trkpt lat="48.48417" lon="-2.67028">
        <ele>59</ele>
        <time>2020-01-25T14:05:58.000Z</time>
      </trkpt>
      <trkpt lat="48.48426" lon="-2.67027">
        <ele>60</ele>
        <time>2020-01-25T14:06:05.000Z</time>
      </trkpt>
      <trkpt lat="48.48435" lon="-2.67032">
        <ele>61</ele>
        <time>2020-01-25T14:06:11.000Z</time>
      </trkpt>
      <trkpt lat="48.48441" lon="-2.67045">
        <ele>60</ele>
        <time>2020-01-25T14:06:19.000Z</time>
      </trkpt>
      <trkpt lat="48.48447" lon="-2.67058">
        <ele>60</ele>
        <time>2020-01-25T14:06:26.000Z</time>
      </trkpt>
      <trkpt lat="48.48456" lon="-2.67066">
        <ele>59</ele>
        <time>2020-01-25T14:06:33.000Z</time>
      </trkpt>
      <trkpt lat="48.48463" lon="-2.67076">
        <ele>56</ele>
        <time>2020-01-25T14:06:40.000Z</time>
      </trkpt>
      <trkpt lat="48.48473" lon="-2.6708">
        <ele>58</ele>
        <time>2020-01-25T14:06:49.000Z</time>
      </trkpt>
      <trkpt lat="48.48482" lon="-2.67082">
        <ele>58</ele>
        <time>2020-01-25T14:06:55.000Z</time>
      </trkpt>
      <trkpt lat="48.48491" lon="-2.67085">
        <ele>57</ele>
        <time>2020-01-25T14:07:01.000Z</time>
      </trkpt>
      <trkpt lat="48.485" lon="-2.67089">
        <ele>56</ele>
        <time>2020-01-25T14:07:08.000Z</time>
      </trkpt>
      <trkpt lat="48.4851" lon="-2.67091">
        <ele>58</ele>
        <time>2020-01-25T14:07:15.000Z</time>
      </trkpt>
      <trkpt lat="48.48517" lon="-2.67099">
        <ele>56</ele>
        <time>2020-01-25T14:07:22.000Z</time>
      </trkpt>
      <trkpt lat="48.48519" lon="-2.67114">
        <ele>57</ele>
        <time>2020-01-25T14:07:29.000Z</time>
      </trkpt>
      <trkpt lat="48.4852" lon="-2.67129">
        <ele>57</ele>
        <time>2020-01-25T14:07:35.000Z</time>
      </trkpt>
      <trkpt lat="48.48519" lon="-2.67144">
        <ele>56</ele>
        <time>2020-01-25T14:07:41.000Z</time>
      </trkpt>
      <trkpt lat="48.4852" lon="-2.6716">
        <ele>56</ele>
        <time>2020-01-25T14:07:48.000Z</time>
      </trkpt>
      <trkpt lat="48.4852" lon="-2.67173">
        <ele>56</ele>
        <time>2020-01-25T14:07:54.000Z</time>
      </trkpt>
      <trkpt lat="48.48521" lon="-2.67187">
        <ele>56</ele>
        <time>2020-01-25T14:08:00.000Z</time>
      </trkpt>
      <trkpt lat="48.48521" lon="-2.67203">
        <ele>56</ele>
        <time>2020-01-25T14:08:07.000Z</time>
      </trkpt>
      <trkpt lat="48.4853" lon="-2.6721">
        <ele>55</ele>
        <time>2020-01-25T14:08:15.000Z</time>
      </trkpt>
      <trkpt lat="48.48538" lon="-2.67216">
        <ele>54</ele>
        <time>2020-01-25T14:08:22.000Z</time>
      </trkpt>
      <trkpt lat="48.48546" lon="-2.67223">
        <ele>54</ele>
        <time>2020-01-25T14:08:29.000Z</time>
      </trkpt>
      <trkpt lat="48.48555" lon="-2.67229">
        <ele>55</ele>
        <time>2020-01-25T14:08:36.000Z</time>
      </trkpt>
      <trkpt lat="48.48564" lon="-2.6723">
        <ele>55</ele>
        <time>2020-01-25T14:08:42.000Z</time>
      </trkpt>
      <trkpt lat="48.48574" lon="-2.67232">
        <ele>55</ele>
        <time>2020-01-25T14:08:50.000Z</time>
      </trkpt>
      <trkpt lat="48.48584" lon="-2.67235">
        <ele>56</ele>
        <time>2020-01-25T14:08:57.000Z</time>
      </trkpt>
      <trkpt lat="48.48594" lon="-2.67236">
        <ele>56</ele>
        <time>2020-01-25T14:09:03.000Z</time>
      </trkpt>
      <trkpt lat="48.48603" lon="-2.67238">
        <ele>55</ele>
        <time>2020-01-25T14:09:09.000Z</time>
      </trkpt>
      <trkpt lat="48.48613" lon="-2.67238">
        <ele>55</ele>
        <time>2020-01-25T14:09:16.000Z</time>
      </trkpt>
      <trkpt lat="48.48623" lon="-2.6724">
        <ele>55</ele>
        <time>2020-01-25T14:09:23.000Z</time>
      </trkpt>
      <trkpt lat="48.48632" lon="-2.67243">
        <ele>56</ele>
        <time>2020-01-25T14:09:29.000Z</time>
      </trkpt>
      <trkpt lat="48.48642" lon="-2.67247">
        <ele>55</ele>
        <time>2020-01-25T14:09:36.000Z</time>
      </trkpt>
      <trkpt lat="48.48652" lon="-2.6725">
        <ele>54</ele>
        <time>2020-01-25T14:09:45.000Z</time>
      </trkpt>
      <trkpt lat="48.48661" lon="-2.6725">
        <ele>54</ele>
        <time>2020-01-25T14:09:51.000Z</time>
      </trkpt>
      <trkpt lat="48.48671" lon="-2.67247">
        <ele>54</ele>
        <time>2020-01-25T14:09:57.000Z</time>
      </trkpt>
      <trkpt lat="48.48681" lon="-2.67249">
        <ele>54</ele>
        <time>2020-01-25T14:10:03.000Z</time>
      </trkpt>
      <trkpt lat="48.4869" lon="-2.67254">
        <ele>53</ele>
        <time>2020-01-25T14:10:09.000Z</time>
      </trkpt>
      <trkpt lat="48.48697" lon="-2.67265">
        <ele>53</ele>
        <time>2020-01-25T14:10:16.000Z</time>
      </trkpt>
      <trkpt lat="48.487" lon="-2.67279">
        <ele>52</ele>
        <time>2020-01-25T14:10:22.000Z</time>
      </trkpt>
      <trkpt lat="48.48704" lon="-2.67292">
        <ele>51</ele>
        <time>2020-01-25T14:10:29.000Z</time>
      </trkpt>
      <trkpt lat="48.48709" lon="-2.67305">
        <ele>51</ele>
        <time>2020-01-25T14:10:36.000Z</time>
      </trkpt>
      <trkpt lat="48.48713" lon="-2.67318">
        <ele>51</ele>
        <time>2020-01-25T14:10:42.000Z</time>
      </trkpt>
      <trkpt lat="48.48717" lon="-2.67331">
        <ele>51</ele>
        <time>2020-01-25T14:10:48.000Z</time>
      </trkpt>
      <trkpt lat="48.48717" lon="-2.67346">
        <ele>52</ele>
        <time>2020-01-25T14:10:55.000Z</time>
      </trkpt>
      <trkpt lat="48.48713" lon="-2.67359">
        <ele>52</ele>
        <time>2020-01-25T14:11:04.000Z</time>
      </trkpt>
      <trkpt lat="48.48717" lon="-2.67373">
        <ele>53</ele>
        <time>2020-01-25T14:11:11.000Z</time>
      </trkpt>
      <trkpt lat="48.48724" lon="-2.67381">
        <ele>52</ele>
        <time>2020-01-25T14:11:18.000Z</time>
      </trkpt>
      <trkpt lat="48.48731" lon="-2.67393">
        <ele>54</ele>
        <time>2020-01-25T14:11:25.000Z</time>
      </trkpt>
      <trkpt lat="48.48735" lon="-2.67405">
        <ele>55</ele>
        <time>2020-01-25T14:11:31.000Z</time>
      </trkpt>
      <trkpt lat="48.48741" lon="-2.67417">
        <ele>55</ele>
        <time>2020-01-25T14:11:38.000Z</time>
      </trkpt>
      <trkpt lat="48.48748" lon="-2.67428">
        <ele>55</ele>
        <time>2020-01-25T14:11:45.000Z</time>
      </trkpt>
      <trkpt lat="48.48756" lon="-2.67436">
        <ele>54</ele>
        <time>2020-01-25T14:11:52.000Z</time>
      </trkpt>
      <trkpt lat="48.48765" lon="-2.6744">
        <ele>53</ele>
        <time>2020-01-25T14:11:58.000Z</time>
      </trkpt>
      <trkpt lat="48.48771" lon="-2.67451">
        <ele>53</ele>
        <time>2020-01-25T14:12:05.000Z</time>
      </trkpt>
      <trkpt lat="48.48776" lon="-2.67464">
        <ele>53</ele>
        <time>2020-01-25T14:12:12.000Z</time>
      </trkpt>
      <trkpt lat="48.48777" lon="-2.67478">
        <ele>54</ele>
        <time>2020-01-25T14:12:20.000Z</time>
      </trkpt>
      <trkpt lat="48.48783" lon="-2.67489">
        <ele>54</ele>
        <time>2020-01-25T14:12:26.000Z</time>
      </trkpt>
      <trkpt lat="48.48789" lon="-2.67501">
        <ele>55</ele>
        <time>2020-01-25T14:12:32.000Z</time>
      </trkpt>
      <trkpt lat="48.48796" lon="-2.67513">
        <ele>55</ele>
        <time>2020-01-25T14:12:39.000Z</time>
      </trkpt>
      <trkpt lat="48.48802" lon="-2.67525">
        <ele>54</ele>
        <time>2020-01-25T14:12:46.000Z</time>
      </trkpt>
      <trkpt lat="48.4881" lon="-2.67534">
        <ele>53</ele>
        <time>2020-01-25T14:12:54.000Z</time>
      </trkpt>
      <trkpt lat="48.48819" lon="-2.67542">
        <ele>52</ele>
        <time>2020-01-25T14:13:01.000Z</time>
      </trkpt>
      <trkpt lat="48.48829" lon="-2.67538">
        <ele>54</ele>
        <time>2020-01-25T14:13:08.000Z</time>
      </trkpt>
      <trkpt lat="48.48838" lon="-2.67537">
        <ele>55</ele>
        <time>2020-01-25T14:13:15.000Z</time>
      </trkpt>
      <trkpt lat="48.48847" lon="-2.67533">
        <ele>54</ele>
        <time>2020-01-25T14:13:22.000Z</time>
      </trkpt>
      <trkpt lat="48.48858" lon="-2.67531">
        <ele>54</ele>
        <time>2020-01-25T14:13:29.000Z</time>
      </trkpt>
      <trkpt lat="48.48868" lon="-2.67529">
        <ele>55</ele>
        <time>2020-01-25T14:13:35.000Z</time>
      </trkpt>
      <trkpt lat="48.48877" lon="-2.67528">
        <ele>55</ele>
        <time>2020-01-25T14:13:41.000Z</time>
      </trkpt>
      <trkpt lat="48.48887" lon="-2.67527">
        <ele>57</ele>
        <time>2020-01-25T14:13:47.000Z</time>
      </trkpt>
      <trkpt lat="48.48896" lon="-2.67526">
        <ele>56</ele>
        <time>2020-01-25T14:13:53.000Z</time>
      </trkpt>
      <trkpt lat="48.48906" lon="-2.67526">
        <ele>55</ele>
        <time>2020-01-25T14:13:59.000Z</time>
      </trkpt>
      <trkpt lat="48.48915" lon="-2.67527">
        <ele>55</ele>
        <time>2020-01-25T14:14:05.000Z</time>
      </trkpt>
      <trkpt lat="48.48924" lon="-2.67529">
        <ele>55</ele>
        <time>2020-01-25T14:14:11.000Z</time>
      </trkpt>
      <trkpt lat="48.48933" lon="-2.67534">
        <ele>55</ele>
        <time>2020-01-25T14:14:17.000Z</time>
      </trkpt>
      <trkpt lat="48.48942" lon="-2.67539">
        <ele>55</ele>
        <time>2020-01-25T14:14:23.000Z</time>
      </trkpt>
      <trkpt lat="48.4895" lon="-2.67546">
        <ele>55</ele>
        <time>2020-01-25T14:14:29.000Z</time>
      </trkpt>
      <trkpt lat="48.48958" lon="-2.67554">
        <ele>55</ele>
        <time>2020-01-25T14:14:36.000Z</time>
      </trkpt>
      <trkpt lat="48.48965" lon="-2.67565">
        <ele>55</ele>
        <time>2020-01-25T14:14:42.000Z</time>
      </trkpt>
      <trkpt lat="48.48972" lon="-2.67575">
        <ele>54</ele>
        <time>2020-01-25T14:14:48.000Z</time>
      </trkpt>
      <trkpt lat="48.48977" lon="-2.67588">
        <ele>54</ele>
        <time>2020-01-25T14:14:55.000Z</time>
      </trkpt>
      <trkpt lat="48.48981" lon="-2.67602">
        <ele>55</ele>
        <time>2020-01-25T14:15:01.000Z</time>
      </trkpt>
      <trkpt lat="48.48985" lon="-2.67616">
        <ele>54</ele>
        <time>2020-01-25T14:15:07.000Z</time>
      </trkpt>
      <trkpt lat="48.48987" lon="-2.6763">
        <ele>53</ele>
        <time>2020-01-25T14:15:13.000Z</time>
      </trkpt>
      <trkpt lat="48.48989" lon="-2.67644">
        <ele>54</ele>
        <time>2020-01-25T14:15:19.000Z</time>
      </trkpt>
      <trkpt lat="48.48989" lon="-2.67658">
        <ele>54</ele>
        <time>2020-01-25T14:15:25.000Z</time>
      </trkpt>
      <trkpt lat="48.4899" lon="-2.67673">
        <ele>55</ele>
        <time>2020-01-25T14:15:32.000Z</time>
      </trkpt>
      <trkpt lat="48.48992" lon="-2.67688">
        <ele>55</ele>
        <time>2020-01-25T14:15:39.000Z</time>
      </trkpt>
      <trkpt lat="48.48994" lon="-2.67703">
        <ele>56</ele>
        <time>2020-01-25T14:15:46.000Z</time>
      </trkpt>
      <trkpt lat="48.49004" lon="-2.6771">
        <ele>54</ele>
        <time>2020-01-25T14:15:54.000Z</time>
      </trkpt>
      <trkpt lat="48.49012" lon="-2.67704">
        <ele>54</ele>
        <time>2020-01-25T14:16:01.000Z</time>
      </trkpt>
      <trkpt lat="48.49018" lon="-2.67693">
        <ele>54</ele>
        <time>2020-01-25T14:16:07.000Z</time>
      </trkpt>
      <trkpt lat="48.49025" lon="-2.67681">
        <ele>54</ele>
        <time>2020-01-25T14:16:14.000Z</time>
      </trkpt>
      <trkpt lat="48.49031" lon="-2.6767">
        <ele>54</ele>
        <time>2020-01-25T14:16:20.000Z</time>
      </trkpt>
      <trkpt lat="48.49037" lon="-2.67659">
        <ele>55</ele>
        <time>2020-01-25T14:16:26.000Z</time>
      </trkpt>
      <trkpt lat="48.49043" lon="-2.67647">
        <ele>55</ele>
        <time>2020-01-25T14:16:33.000Z</time>
      </trkpt>
      <trkpt lat="48.49049" lon="-2.67636">
        <ele>56</ele>
        <time>2020-01-25T14:16:39.000Z</time>
      </trkpt>
      <trkpt lat="48.49055" lon="-2.67625">
        <ele>55</ele>
        <time>2020-01-25T14:16:46.000Z</time>
      </trkpt>
      <trkpt lat="48.4906" lon="-2.67613">
        <ele>55</ele>
        <time>2020-01-25T14:16:52.000Z</time>
      </trkpt>
      <trkpt lat="48.49066" lon="-2.67601">
        <ele>55</ele>
        <time>2020-01-25T14:16:59.000Z</time>
      </trkpt>
      <trkpt lat="48.49072" lon="-2.6759">
        <ele>56</ele>
        <time>2020-01-25T14:17:05.000Z</time>
      </trkpt>
      <trkpt lat="48.49078" lon="-2.67578">
        <ele>56</ele>
        <time>2020-01-25T14:17:12.000Z</time>
      </trkpt>
      <trkpt lat="48.49084" lon="-2.67566">
        <ele>56</ele>
        <time>2020-01-25T14:17:19.000Z</time>
      </trkpt>
      <trkpt lat="48.49089" lon="-2.67554">
        <ele>56</ele>
        <time>2020-01-25T14:17:26.000Z</time>
      </trkpt>
      <trkpt lat="48.49094" lon="-2.67542">
        <ele>57</ele>
        <time>2020-01-25T14:17:32.000Z</time>
      </trkpt>
      <trkpt lat="48.49099" lon="-2.6753">
        <ele>57</ele>
        <time>2020-01-25T14:17:38.000Z</time>
      </trkpt>
      <trkpt lat="48.49106" lon="-2.67519">
        <ele>59</ele>
        <time>2020-01-25T14:17:44.000Z</time>
      </trkpt>
      <trkpt lat="48.49112" lon="-2.67506">
        <ele>58</ele>
        <time>2020-01-25T14:17:51.000Z</time>
      </trkpt>
      <trkpt lat="48.49118" lon="-2.67493">
        <ele>58</ele>
        <time>2020-01-25T14:17:58.000Z</time>
      </trkpt>
      <trkpt lat="48.49124" lon="-2.67483">
        <ele>57</ele>
        <time>2020-01-25T14:18:04.000Z</time>
      </trkpt>
      <trkpt lat="48.49132" lon="-2.67475">
        <ele>58</ele>
        <time>2020-01-25T14:18:12.000Z</time>
      </trkpt>
      <trkpt lat="48.49142" lon="-2.67476">
        <ele>58</ele>
        <time>2020-01-25T14:18:21.000Z</time>
      </trkpt>
      <trkpt lat="48.49151" lon="-2.67474">
        <ele>58</ele>
        <time>2020-01-25T14:18:28.000Z</time>
      </trkpt>
      <trkpt lat="48.49161" lon="-2.67474">
        <ele>58</ele>
        <time>2020-01-25T14:18:34.000Z</time>
      </trkpt>
      <trkpt lat="48.49172" lon="-2.67475">
        <ele>58</ele>
        <time>2020-01-25T14:18:41.000Z</time>
      </trkpt>
      <trkpt lat="48.49181" lon="-2.67477">
        <ele>57</ele>
        <time>2020-01-25T14:18:47.000Z</time>
      </trkpt>
      <trkpt lat="48.4919" lon="-2.67479">
        <ele>57</ele>
        <time>2020-01-25T14:18:53.000Z</time>
      </trkpt>
      <trkpt lat="48.49199" lon="-2.67482">
        <ele>56</ele>
        <time>2020-01-25T14:19:00.000Z</time>
      </trkpt>
      <trkpt lat="48.49209" lon="-2.67488">
        <ele>56</ele>
        <time>2020-01-25T14:19:07.000Z</time>
      </trkpt>
      <trkpt lat="48.49219" lon="-2.67487">
        <ele>55</ele>
        <time>2020-01-25T14:19:14.000Z</time>
      </trkpt>
      <trkpt lat="48.49227" lon="-2.6748">
        <ele>56</ele>
        <time>2020-01-25T14:19:21.000Z</time>
      </trkpt>
      <trkpt lat="48.49235" lon="-2.6747">
        <ele>56</ele>
        <time>2020-01-25T14:19:29.000Z</time>
      </trkpt>
      <trkpt lat="48.49243" lon="-2.6746">
        <ele>56</ele>
        <time>2020-01-25T14:19:35.000Z</time>
      </trkpt>
      <trkpt lat="48.49249" lon="-2.67449">
        <ele>55</ele>
        <time>2020-01-25T14:19:41.000Z</time>
      </trkpt>
      <trkpt lat="48.49253" lon="-2.67437">
        <ele>56</ele>
        <time>2020-01-25T14:19:46.000Z</time>
      </trkpt>
      <trkpt lat="48.49255" lon="-2.67422">
        <ele>56</ele>
        <time>2020-01-25T14:19:52.000Z</time>
      </trkpt>
      <trkpt lat="48.49258" lon="-2.67407">
        <ele>56</ele>
        <time>2020-01-25T14:19:59.000Z</time>
      </trkpt>
      <trkpt lat="48.49259" lon="-2.67393">
        <ele>56</ele>
        <time>2020-01-25T14:20:05.000Z</time>
      </trkpt>
      <trkpt lat="48.49259" lon="-2.67378">
        <ele>57</ele>
        <time>2020-01-25T14:20:11.000Z</time>
      </trkpt>
      <trkpt lat="48.49257" lon="-2.67363">
        <ele>57</ele>
        <time>2020-01-25T14:20:19.000Z</time>
      </trkpt>
      <trkpt lat="48.49254" lon="-2.67346">
        <ele>57</ele>
        <time>2020-01-25T14:20:27.000Z</time>
      </trkpt>
      <trkpt lat="48.49252" lon="-2.67331">
        <ele>57</ele>
        <time>2020-01-25T14:20:33.000Z</time>
      </trkpt>
      <trkpt lat="48.4925" lon="-2.67316">
        <ele>57</ele>
        <time>2020-01-25T14:20:40.000Z</time>
      </trkpt>
      <trkpt lat="48.49249" lon="-2.67301">
        <ele>58</ele>
        <time>2020-01-25T14:20:46.000Z</time>
      </trkpt>
      <trkpt lat="48.4925" lon="-2.67287">
        <ele>59</ele>
        <time>2020-01-25T14:20:53.000Z</time>
      </trkpt>
      <trkpt lat="48.49249" lon="-2.67273">
        <ele>59</ele>
        <time>2020-01-25T14:21:01.000Z</time>
      </trkpt>
      <trkpt lat="48.49251" lon="-2.67288">
        <ele>55</ele>
        <time>2020-01-25T14:21:47.000Z</time>
      </trkpt>
      <trkpt lat="48.49251" lon="-2.67302">
        <ele>55</ele>
        <time>2020-01-25T14:21:53.000Z</time>
      </trkpt>
      <trkpt lat="48.49251" lon="-2.67317">
        <ele>54</ele>
        <time>2020-01-25T14:21:59.000Z</time>
      </trkpt>
      <trkpt lat="48.49252" lon="-2.67332">
        <ele>53</ele>
        <time>2020-01-25T14:22:06.000Z</time>
      </trkpt>
      <trkpt lat="48.49255" lon="-2.67345">
        <ele>53</ele>
        <time>2020-01-25T14:22:13.000Z</time>
      </trkpt>
      <trkpt lat="48.49257" lon="-2.67359">
        <ele>53</ele>
        <time>2020-01-25T14:22:19.000Z</time>
      </trkpt>
      <trkpt lat="48.49258" lon="-2.67373">
        <ele>53</ele>
        <time>2020-01-25T14:22:27.000Z</time>
      </trkpt>
      <trkpt lat="48.49259" lon="-2.67387">
        <ele>52</ele>
        <time>2020-01-25T14:22:33.000Z</time>
      </trkpt>
      <trkpt lat="48.49258" lon="-2.67402">
        <ele>53</ele>
        <time>2020-01-25T14:22:39.000Z</time>
      </trkpt>
      <trkpt lat="48.49255" lon="-2.67416">
        <ele>52</ele>
        <time>2020-01-25T14:22:45.000Z</time>
      </trkpt>
      <trkpt lat="48.49252" lon="-2.6743">
        <ele>53</ele>
        <time>2020-01-25T14:22:51.000Z</time>
      </trkpt>
      <trkpt lat="48.49249" lon="-2.67444">
        <ele>53</ele>
        <time>2020-01-25T14:22:58.000Z</time>
      </trkpt>
      <trkpt lat="48.49244" lon="-2.67456">
        <ele>53</ele>
        <time>2020-01-25T14:23:05.000Z</time>
      </trkpt>
      <trkpt lat="48.49237" lon="-2.67465">
        <ele>53</ele>
        <time>2020-01-25T14:23:11.000Z</time>
      </trkpt>
      <trkpt lat="48.49229" lon="-2.67475">
        <ele>54</ele>
        <time>2020-01-25T14:23:18.000Z</time>
      </trkpt>
      <trkpt lat="48.49221" lon="-2.67484">
        <ele>55</ele>
        <time>2020-01-25T14:23:25.000Z</time>
      </trkpt>
      <trkpt lat="48.49229" lon="-2.67476">
        <ele>56</ele>
        <time>2020-01-25T14:24:23.000Z</time>
      </trkpt>
      <trkpt lat="48.49237" lon="-2.67466">
        <ele>56</ele>
        <time>2020-01-25T14:24:43.000Z</time>
      </trkpt>
      <trkpt lat="48.49244" lon="-2.67457">
        <ele>56</ele>
        <time>2020-01-25T14:24:49.000Z</time>
      </trkpt>
      <trkpt lat="48.49249" lon="-2.67445">
        <ele>56</ele>
        <time>2020-01-25T14:24:55.000Z</time>
      </trkpt>
      <trkpt lat="48.49252" lon="-2.67431">
        <ele>57</ele>
        <time>2020-01-25T14:25:01.000Z</time>
      </trkpt>
      <trkpt lat="48.49255" lon="-2.67418">
        <ele>56</ele>
        <time>2020-01-25T14:25:07.000Z</time>
      </trkpt>
      <trkpt lat="48.49257" lon="-2.67405">
        <ele>55</ele>
        <time>2020-01-25T14:25:13.000Z</time>
      </trkpt>
      <trkpt lat="48.49258" lon="-2.67391">
        <ele>55</ele>
        <time>2020-01-25T14:25:19.000Z</time>
      </trkpt>
      <trkpt lat="48.49258" lon="-2.67377">
        <ele>56</ele>
        <time>2020-01-25T14:25:25.000Z</time>
      </trkpt>
      <trkpt lat="48.49256" lon="-2.67361">
        <ele>57</ele>
        <time>2020-01-25T14:25:31.000Z</time>
      </trkpt>
      <trkpt lat="48.49253" lon="-2.67346">
        <ele>56</ele>
        <time>2020-01-25T14:25:38.000Z</time>
      </trkpt>
      <trkpt lat="48.49251" lon="-2.67332">
        <ele>57</ele>
        <time>2020-01-25T14:25:45.000Z</time>
      </trkpt>
      <trkpt lat="48.49251" lon="-2.67318">
        <ele>57</ele>
        <time>2020-01-25T14:25:51.000Z</time>
      </trkpt>
      <trkpt lat="48.4925" lon="-2.67304">
        <ele>56</ele>
        <time>2020-01-25T14:25:58.000Z</time>
      </trkpt>
      <trkpt lat="48.49251" lon="-2.6729">
        <ele>55</ele>
        <time>2020-01-25T14:26:04.000Z</time>
      </trkpt>
      <trkpt lat="48.4925" lon="-2.67275">
        <ele>54</ele>
        <time>2020-01-25T14:26:10.000Z</time>
      </trkpt>
      <trkpt lat="48.4925" lon="-2.67261">
        <ele>55</ele>
        <time>2020-01-25T14:26:16.000Z</time>
      </trkpt>
      <trkpt lat="48.49248" lon="-2.67247">
        <ele>55</ele>
        <time>2020-01-25T14:26:22.000Z</time>
      </trkpt>
      <trkpt lat="48.49249" lon="-2.67231">
        <ele>56</ele>
        <time>2020-01-25T14:26:29.000Z</time>
      </trkpt>
      <trkpt lat="48.49254" lon="-2.67219">
        <ele>56</ele>
        <time>2020-01-25T14:26:35.000Z</time>
      </trkpt>
      <trkpt lat="48.49259" lon="-2.67207">
        <ele>57</ele>
        <time>2020-01-25T14:26:44.000Z</time>
      </trkpt>
      <trkpt lat="48.49264" lon="-2.67194">
        <ele>56</ele>
        <time>2020-01-25T14:26:50.000Z</time>
      </trkpt>
      <trkpt lat="48.4927" lon="-2.67207">
        <ele>54</ele>
        <time>2020-01-25T14:26:57.000Z</time>
      </trkpt>
      <trkpt lat="48.49269" lon="-2.6722">
        <ele>54</ele>
        <time>2020-01-25T14:27:03.000Z</time>
      </trkpt>
      <trkpt lat="48.49268" lon="-2.67234">
        <ele>55</ele>
        <time>2020-01-25T14:27:08.000Z</time>
      </trkpt>
      <trkpt lat="48.49267" lon="-2.67248">
        <ele>56</ele>
        <time>2020-01-25T14:27:14.000Z</time>
      </trkpt>
      <trkpt lat="48.49265" lon="-2.67262">
        <ele>56</ele>
        <time>2020-01-25T14:27:20.000Z</time>
      </trkpt>
      <trkpt lat="48.49266" lon="-2.67277">
        <ele>56</ele>
        <time>2020-01-25T14:27:28.000Z</time>
      </trkpt>
      <trkpt lat="48.49267" lon="-2.67291">
        <ele>56</ele>
        <time>2020-01-25T14:27:34.000Z</time>
      </trkpt>
      <trkpt lat="48.49268" lon="-2.67306">
        <ele>53</ele>
        <time>2020-01-25T14:27:42.000Z</time>
      </trkpt>
      <trkpt lat="48.49268" lon="-2.67322">
        <ele>52</ele>
        <time>2020-01-25T14:27:48.000Z</time>
      </trkpt>
      <trkpt lat="48.49272" lon="-2.67336">
        <ele>52</ele>
        <time>2020-01-25T14:27:55.000Z</time>
      </trkpt>
      <trkpt lat="48.49278" lon="-2.6735">
        <ele>52</ele>
        <time>2020-01-25T14:28:02.000Z</time>
      </trkpt>
      <trkpt lat="48.49281" lon="-2.67363">
        <ele>52</ele>
        <time>2020-01-25T14:28:08.000Z</time>
      </trkpt>
      <trkpt lat="48.49279" lon="-2.67379">
        <ele>53</ele>
        <time>2020-01-25T14:28:15.000Z</time>
      </trkpt>
      <trkpt lat="48.49275" lon="-2.67392">
        <ele>52</ele>
        <time>2020-01-25T14:28:21.000Z</time>
      </trkpt>
      <trkpt lat="48.49272" lon="-2.67405">
        <ele>53</ele>
        <time>2020-01-25T14:28:27.000Z</time>
      </trkpt>
      <trkpt lat="48.49269" lon="-2.67419">
        <ele>53</ele>
        <time>2020-01-25T14:28:33.000Z</time>
      </trkpt>
      <trkpt lat="48.4927" lon="-2.67434">
        <ele>53</ele>
        <time>2020-01-25T14:28:40.000Z</time>
      </trkpt>
      <trkpt lat="48.49271" lon="-2.67449">
        <ele>53</ele>
        <time>2020-01-25T14:28:47.000Z</time>
      </trkpt>
      <trkpt lat="48.49272" lon="-2.67464">
        <ele>53</ele>
        <time>2020-01-25T14:28:54.000Z</time>
      </trkpt>
      <trkpt lat="48.49268" lon="-2.67476">
        <ele>53</ele>
        <time>2020-01-25T14:29:00.000Z</time>
      </trkpt>
      <trkpt lat="48.4926" lon="-2.67485">
        <ele>54</ele>
        <time>2020-01-25T14:29:07.000Z</time>
      </trkpt>
      <trkpt lat="48.49252" lon="-2.67494">
        <ele>55</ele>
        <time>2020-01-25T14:29:14.000Z</time>
      </trkpt>
      <trkpt lat="48.49247" lon="-2.67505">
        <ele>53</ele>
        <time>2020-01-25T14:29:22.000Z</time>
      </trkpt>
      <trkpt lat="48.49242" lon="-2.67518">
        <ele>53</ele>
        <time>2020-01-25T14:29:29.000Z</time>
      </trkpt>
      <trkpt lat="48.49237" lon="-2.6753">
        <ele>54</ele>
        <time>2020-01-25T14:29:36.000Z</time>
      </trkpt>
      <trkpt lat="48.49233" lon="-2.67542">
        <ele>53</ele>
        <time>2020-01-25T14:29:42.000Z</time>
      </trkpt>
      <trkpt lat="48.49229" lon="-2.67555">
        <ele>54</ele>
        <time>2020-01-25T14:29:48.000Z</time>
      </trkpt>
      <trkpt lat="48.49225" lon="-2.6757">
        <ele>54</ele>
        <time>2020-01-25T14:29:55.000Z</time>
      </trkpt>
      <trkpt lat="48.49221" lon="-2.67586">
        <ele>54</ele>
        <time>2020-01-25T14:30:02.000Z</time>
      </trkpt>
      <trkpt lat="48.49217" lon="-2.67599">
        <ele>53</ele>
        <time>2020-01-25T14:30:09.000Z</time>
      </trkpt>
      <trkpt lat="48.49212" lon="-2.67613">
        <ele>53</ele>
        <time>2020-01-25T14:30:16.000Z</time>
      </trkpt>
      <trkpt lat="48.49208" lon="-2.67625">
        <ele>54</ele>
        <time>2020-01-25T14:30:22.000Z</time>
      </trkpt>
      <trkpt lat="48.49203" lon="-2.67637">
        <ele>54</ele>
        <time>2020-01-25T14:30:28.000Z</time>
      </trkpt>
      <trkpt lat="48.49198" lon="-2.67651">
        <ele>54</ele>
        <time>2020-01-25T14:30:35.000Z</time>
      </trkpt>
      <trkpt lat="48.49194" lon="-2.67666">
        <ele>54</ele>
        <time>2020-01-25T14:30:42.000Z</time>
      </trkpt>
      <trkpt lat="48.49192" lon="-2.6768">
        <ele>53</ele>
        <time>2020-01-25T14:30:48.000Z</time>
      </trkpt>
      <trkpt lat="48.49193" lon="-2.67695">
        <ele>53</ele>
        <time>2020-01-25T14:30:55.000Z</time>
      </trkpt>
      <trkpt lat="48.49198" lon="-2.67707">
        <ele>52</ele>
        <time>2020-01-25T14:31:01.000Z</time>
      </trkpt>
      <trkpt lat="48.49203" lon="-2.6772">
        <ele>53</ele>
        <time>2020-01-25T14:31:08.000Z</time>
      </trkpt>
      <trkpt lat="48.49207" lon="-2.67733">
        <ele>53</ele>
        <time>2020-01-25T14:31:14.000Z</time>
      </trkpt>
      <trkpt lat="48.4921" lon="-2.67748">
        <ele>52</ele>
        <time>2020-01-25T14:31:21.000Z</time>
      </trkpt>
      <trkpt lat="48.49215" lon="-2.67762">
        <ele>53</ele>
        <time>2020-01-25T14:31:28.000Z</time>
      </trkpt>
      <trkpt lat="48.49223" lon="-2.67768">
        <ele>53</ele>
        <time>2020-01-25T14:31:34.000Z</time>
      </trkpt>
      <trkpt lat="48.49233" lon="-2.67773">
        <ele>53</ele>
        <time>2020-01-25T14:31:41.000Z</time>
      </trkpt>
      <trkpt lat="48.49242" lon="-2.67778">
        <ele>55</ele>
        <time>2020-01-25T14:31:48.000Z</time>
      </trkpt>
      <trkpt lat="48.49252" lon="-2.67778">
        <ele>55</ele>
        <time>2020-01-25T14:31:54.000Z</time>
      </trkpt>
      <trkpt lat="48.49261" lon="-2.67777">
        <ele>54</ele>
        <time>2020-01-25T14:32:01.000Z</time>
      </trkpt>
      <trkpt lat="48.49271" lon="-2.67775">
        <ele>53</ele>
        <time>2020-01-25T14:32:08.000Z</time>
      </trkpt>
      <trkpt lat="48.49281" lon="-2.67773">
        <ele>53</ele>
        <time>2020-01-25T14:32:14.000Z</time>
      </trkpt>
      <trkpt lat="48.4929" lon="-2.67772">
        <ele>53</ele>
        <time>2020-01-25T14:32:20.000Z</time>
      </trkpt>
      <trkpt lat="48.49299" lon="-2.67771">
        <ele>53</ele>
        <time>2020-01-25T14:32:26.000Z</time>
      </trkpt>
      <trkpt lat="48.49308" lon="-2.6777">
        <ele>54</ele>
        <time>2020-01-25T14:32:32.000Z</time>
      </trkpt>
      <trkpt lat="48.49317" lon="-2.67776">
        <ele>54</ele>
        <time>2020-01-25T14:32:39.000Z</time>
      </trkpt>
      <trkpt lat="48.49323" lon="-2.67787">
        <ele>54</ele>
        <time>2020-01-25T14:32:45.000Z</time>
      </trkpt>
      <trkpt lat="48.49329" lon="-2.67799">
        <ele>54</ele>
        <time>2020-01-25T14:32:52.000Z</time>
      </trkpt>
      <trkpt lat="48.49336" lon="-2.6781">
        <ele>55</ele>
        <time>2020-01-25T14:32:59.000Z</time>
      </trkpt>
      <trkpt lat="48.49345" lon="-2.67814">
        <ele>55</ele>
        <time>2020-01-25T14:33:05.000Z</time>
      </trkpt>
      <trkpt lat="48.49356" lon="-2.67817">
        <ele>55</ele>
        <time>2020-01-25T14:33:12.000Z</time>
      </trkpt>
      <trkpt lat="48.49365" lon="-2.67819">
        <ele>55</ele>
        <time>2020-01-25T14:33:19.000Z</time>
      </trkpt>
      <trkpt lat="48.49373" lon="-2.67827">
        <ele>54</ele>
        <time>2020-01-25T14:33:26.000Z</time>
      </trkpt>
      <trkpt lat="48.49382" lon="-2.67833">
        <ele>53</ele>
        <time>2020-01-25T14:33:33.000Z</time>
      </trkpt>
      <trkpt lat="48.49387" lon="-2.67847">
        <ele>53</ele>
        <time>2020-01-25T14:33:40.000Z</time>
      </trkpt>
      <trkpt lat="48.49392" lon="-2.6786">
        <ele>53</ele>
        <time>2020-01-25T14:33:47.000Z</time>
      </trkpt>
      <trkpt lat="48.49397" lon="-2.67874">
        <ele>53</ele>
        <time>2020-01-25T14:33:54.000Z</time>
      </trkpt>
      <trkpt lat="48.49402" lon="-2.67888">
        <ele>52</ele>
        <time>2020-01-25T14:34:01.000Z</time>
      </trkpt>
      <trkpt lat="48.49407" lon="-2.67899">
        <ele>51</ele>
        <time>2020-01-25T14:34:08.000Z</time>
      </trkpt>
      <trkpt lat="48.49411" lon="-2.67911">
        <ele>51</ele>
        <time>2020-01-25T14:34:14.000Z</time>
      </trkpt>
      <trkpt lat="48.49416" lon="-2.67925">
        <ele>51</ele>
        <time>2020-01-25T14:34:21.000Z</time>
      </trkpt>
      <trkpt lat="48.49422" lon="-2.67938">
        <ele>51</ele>
        <time>2020-01-25T14:34:28.000Z</time>
      </trkpt>
      <trkpt lat="48.49427" lon="-2.67951">
        <ele>52</ele>
        <time>2020-01-25T14:34:35.000Z</time>
      </trkpt>
      <trkpt lat="48.49432" lon="-2.67965">
        <ele>52</ele>
        <time>2020-01-25T14:34:42.000Z</time>
      </trkpt>
      <trkpt lat="48.49436" lon="-2.67977">
        <ele>52</ele>
        <time>2020-01-25T14:34:48.000Z</time>
      </trkpt>
      <trkpt lat="48.49442" lon="-2.6799">
        <ele>53</ele>
        <time>2020-01-25T14:34:55.000Z</time>
      </trkpt>
      <trkpt lat="48.49447" lon="-2.68004">
        <ele>52</ele>
        <time>2020-01-25T14:35:02.000Z</time>
      </trkpt>
      <trkpt lat="48.49451" lon="-2.68016">
        <ele>51</ele>
        <time>2020-01-25T14:35:08.000Z</time>
      </trkpt>
      <trkpt lat="48.49456" lon="-2.68028">
        <ele>52</ele>
        <time>2020-01-25T14:35:14.000Z</time>
      </trkpt>
      <trkpt lat="48.49461" lon="-2.68042">
        <ele>52</ele>
        <time>2020-01-25T14:35:21.000Z</time>
      </trkpt>
      <trkpt lat="48.49466" lon="-2.68054">
        <ele>52</ele>
        <time>2020-01-25T14:35:27.000Z</time>
      </trkpt>
      <trkpt lat="48.49471" lon="-2.68068">
        <ele>52</ele>
        <time>2020-01-25T14:35:34.000Z</time>
      </trkpt>
      <trkpt lat="48.49475" lon="-2.6808">
        <ele>53</ele>
        <time>2020-01-25T14:35:40.000Z</time>
      </trkpt>
      <trkpt lat="48.4948" lon="-2.68094">
        <ele>52</ele>
        <time>2020-01-25T14:35:47.000Z</time>
      </trkpt>
      <trkpt lat="48.49485" lon="-2.68107">
        <ele>52</ele>
        <time>2020-01-25T14:35:54.000Z</time>
      </trkpt>
      <trkpt lat="48.4949" lon="-2.68119">
        <ele>53</ele>
        <time>2020-01-25T14:36:00.000Z</time>
      </trkpt>
      <trkpt lat="48.49495" lon="-2.68133">
        <ele>53</ele>
        <time>2020-01-25T14:36:07.000Z</time>
      </trkpt>
      <trkpt lat="48.49501" lon="-2.68146">
        <ele>53</ele>
        <time>2020-01-25T14:36:14.000Z</time>
      </trkpt>
      <trkpt lat="48.49505" lon="-2.68159">
        <ele>53</ele>
        <time>2020-01-25T14:36:20.000Z</time>
      </trkpt>
      <trkpt lat="48.49509" lon="-2.68171">
        <ele>52</ele>
        <time>2020-01-25T14:36:26.000Z</time>
      </trkpt>
      <trkpt lat="48.49515" lon="-2.68183">
        <ele>52</ele>
        <time>2020-01-25T14:36:33.000Z</time>
      </trkpt>
      <trkpt lat="48.49519" lon="-2.68195">
        <ele>52</ele>
        <time>2020-01-25T14:36:39.000Z</time>
      </trkpt>
      <trkpt lat="48.49523" lon="-2.68208">
        <ele>51</ele>
        <time>2020-01-25T14:36:45.000Z</time>
      </trkpt>
      <trkpt lat="48.49526" lon="-2.68223">
        <ele>50</ele>
        <time>2020-01-25T14:36:52.000Z</time>
      </trkpt>
      <trkpt lat="48.4953" lon="-2.68236">
        <ele>51</ele>
        <time>2020-01-25T14:36:59.000Z</time>
      </trkpt>
      <trkpt lat="48.49535" lon="-2.68249">
        <ele>52</ele>
        <time>2020-01-25T14:37:05.000Z</time>
      </trkpt>
      <trkpt lat="48.49539" lon="-2.68263">
        <ele>51</ele>
        <time>2020-01-25T14:37:11.000Z</time>
      </trkpt>
      <trkpt lat="48.49546" lon="-2.68274">
        <ele>51</ele>
        <time>2020-01-25T14:37:18.000Z</time>
      </trkpt>
      <trkpt lat="48.49555" lon="-2.68282">
        <ele>52</ele>
        <time>2020-01-25T14:37:24.000Z</time>
      </trkpt>
      <trkpt lat="48.49563" lon="-2.68288">
        <ele>51</ele>
        <time>2020-01-25T14:37:30.000Z</time>
      </trkpt>
      <trkpt lat="48.49572" lon="-2.68293">
        <ele>51</ele>
        <time>2020-01-25T14:37:36.000Z</time>
      </trkpt>
      <trkpt lat="48.4958" lon="-2.683">
        <ele>51</ele>
        <time>2020-01-25T14:37:42.000Z</time>
      </trkpt>
      <trkpt lat="48.4959" lon="-2.68309">
        <ele>51</ele>
        <time>2020-01-25T14:37:50.000Z</time>
      </trkpt>
      <trkpt lat="48.49599" lon="-2.68314">
        <ele>51</ele>
        <time>2020-01-25T14:37:56.000Z</time>
      </trkpt>
      <trkpt lat="48.49608" lon="-2.6832">
        <ele>51</ele>
        <time>2020-01-25T14:38:03.000Z</time>
      </trkpt>
      <trkpt lat="48.49617" lon="-2.68326">
        <ele>51</ele>
        <time>2020-01-25T14:38:09.000Z</time>
      </trkpt>
      <trkpt lat="48.49626" lon="-2.68331">
        <ele>52</ele>
        <time>2020-01-25T14:38:15.000Z</time>
      </trkpt>
      <trkpt lat="48.49634" lon="-2.68337">
        <ele>51</ele>
        <time>2020-01-25T14:38:22.000Z</time>
      </trkpt>
      <trkpt lat="48.49642" lon="-2.68346">
        <ele>51</ele>
        <time>2020-01-25T14:38:29.000Z</time>
      </trkpt>
      <trkpt lat="48.4965" lon="-2.68353">
        <ele>52</ele>
        <time>2020-01-25T14:38:36.000Z</time>
      </trkpt>
      <trkpt lat="48.49659" lon="-2.68359">
        <ele>52</ele>
        <time>2020-01-25T14:38:42.000Z</time>
      </trkpt>
      <trkpt lat="48.49668" lon="-2.68365">
        <ele>52</ele>
        <time>2020-01-25T14:38:48.000Z</time>
      </trkpt>
      <trkpt lat="48.49677" lon="-2.6837">
        <ele>52</ele>
        <time>2020-01-25T14:38:55.000Z</time>
      </trkpt>
      <trkpt lat="48.49686" lon="-2.68376">
        <ele>52</ele>
        <time>2020-01-25T14:39:02.000Z</time>
      </trkpt>
      <trkpt lat="48.49696" lon="-2.68381">
        <ele>52</ele>
        <time>2020-01-25T14:39:09.000Z</time>
      </trkpt>
      <trkpt lat="48.49704" lon="-2.68389">
        <ele>52</ele>
        <time>2020-01-25T14:39:16.000Z</time>
      </trkpt>
      <trkpt lat="48.4971" lon="-2.68401">
        <ele>51</ele>
        <time>2020-01-25T14:39:23.000Z</time>
      </trkpt>
      <trkpt lat="48.49717" lon="-2.68413">
        <ele>53</ele>
        <time>2020-01-25T14:39:30.000Z</time>
      </trkpt>
      <trkpt lat="48.49723" lon="-2.68423">
        <ele>54</ele>
        <time>2020-01-25T14:39:36.000Z</time>
      </trkpt>
      <trkpt lat="48.49731" lon="-2.68433">
        <ele>54</ele>
        <time>2020-01-25T14:39:43.000Z</time>
      </trkpt>
      <trkpt lat="48.49739" lon="-2.68439">
        <ele>53</ele>
        <time>2020-01-25T14:39:49.000Z</time>
      </trkpt>
      <trkpt lat="48.49749" lon="-2.68445">
        <ele>54</ele>
        <time>2020-01-25T14:39:56.000Z</time>
      </trkpt>
      <trkpt lat="48.49757" lon="-2.68449">
        <ele>54</ele>
        <time>2020-01-25T14:40:02.000Z</time>
      </trkpt>
      <trkpt lat="48.49767" lon="-2.68452">
        <ele>54</ele>
        <time>2020-01-25T14:40:09.000Z</time>
      </trkpt>
      <trkpt lat="48.49777" lon="-2.68456">
        <ele>53</ele>
        <time>2020-01-25T14:40:16.000Z</time>
      </trkpt>
      <trkpt lat="48.49787" lon="-2.68458">
        <ele>54</ele>
        <time>2020-01-25T14:40:23.000Z</time>
      </trkpt>
      <trkpt lat="48.49798" lon="-2.68459">
        <ele>54</ele>
        <time>2020-01-25T14:40:30.000Z</time>
      </trkpt>
      <trkpt lat="48.49807" lon="-2.68461">
        <ele>55</ele>
        <time>2020-01-25T14:40:36.000Z</time>
      </trkpt>
      <trkpt lat="48.49817" lon="-2.6846">
        <ele>55</ele>
        <time>2020-01-25T14:40:42.000Z</time>
      </trkpt>
      <trkpt lat="48.49827" lon="-2.68456">
        <ele>55</ele>
        <time>2020-01-25T14:40:49.000Z</time>
      </trkpt>
      <trkpt lat="48.49836" lon="-2.68451">
        <ele>55</ele>
        <time>2020-01-25T14:40:56.000Z</time>
      </trkpt>
      <trkpt lat="48.49845" lon="-2.68444">
        <ele>55</ele>
        <time>2020-01-25T14:41:03.000Z</time>
      </trkpt>
      <trkpt lat="48.49853" lon="-2.68436">
        <ele>55</ele>
        <time>2020-01-25T14:41:09.000Z</time>
      </trkpt>
      <trkpt lat="48.49861" lon="-2.68429">
        <ele>56</ele>
        <time>2020-01-25T14:41:15.000Z</time>
      </trkpt>
      <trkpt lat="48.49868" lon="-2.6842">
        <ele>56</ele>
        <time>2020-01-25T14:41:21.000Z</time>
      </trkpt>
      <trkpt lat="48.49876" lon="-2.68411">
        <ele>56</ele>
        <time>2020-01-25T14:41:28.000Z</time>
      </trkpt>
      <trkpt lat="48.49883" lon="-2.68403">
        <ele>56</ele>
        <time>2020-01-25T14:41:34.000Z</time>
      </trkpt>
      <trkpt lat="48.49891" lon="-2.68393">
        <ele>57</ele>
        <time>2020-01-25T14:41:41.000Z</time>
      </trkpt>
      <trkpt lat="48.49899" lon="-2.68383">
        <ele>56</ele>
        <time>2020-01-25T14:41:48.000Z</time>
      </trkpt>
      <trkpt lat="48.49908" lon="-2.68374">
        <ele>56</ele>
        <time>2020-01-25T14:41:55.000Z</time>
      </trkpt>
      <trkpt lat="48.49915" lon="-2.68365">
        <ele>56</ele>
        <time>2020-01-25T14:42:01.000Z</time>
      </trkpt>
      <trkpt lat="48.49923" lon="-2.68357">
        <ele>56</ele>
        <time>2020-01-25T14:42:08.000Z</time>
      </trkpt>
      <trkpt lat="48.49931" lon="-2.68348">
        <ele>57</ele>
        <time>2020-01-25T14:42:15.000Z</time>
      </trkpt>
      <trkpt lat="48.49939" lon="-2.68339">
        <ele>56</ele>
        <time>2020-01-25T14:42:22.000Z</time>
      </trkpt>
      <trkpt lat="48.49947" lon="-2.68332">
        <ele>55</ele>
        <time>2020-01-25T14:42:29.000Z</time>
      </trkpt>
      <trkpt lat="48.49956" lon="-2.68325">
        <ele>55</ele>
        <time>2020-01-25T14:42:36.000Z</time>
      </trkpt>
      <trkpt lat="48.49965" lon="-2.6832">
        <ele>55</ele>
        <time>2020-01-25T14:42:42.000Z</time>
      </trkpt>
      <trkpt lat="48.49974" lon="-2.68314">
        <ele>55</ele>
        <time>2020-01-25T14:42:49.000Z</time>
      </trkpt>
      <trkpt lat="48.49984" lon="-2.68309">
        <ele>55</ele>
        <time>2020-01-25T14:42:56.000Z</time>
      </trkpt>
      <trkpt lat="48.49992" lon="-2.68305">
        <ele>55</ele>
        <time>2020-01-25T14:43:02.000Z</time>
      </trkpt>
      <trkpt lat="48.50001" lon="-2.68301">
        <ele>55</ele>
        <time>2020-01-25T14:43:09.000Z</time>
      </trkpt>
      <trkpt lat="48.5001" lon="-2.68295">
        <ele>54</ele>
        <time>2020-01-25T14:43:27.000Z</time>
      </trkpt>
      <trkpt lat="48.50019" lon="-2.68291">
        <ele>56</ele>
        <time>2020-01-25T14:43:39.000Z</time>
      </trkpt>
      <trkpt lat="48.50029" lon="-2.68286">
        <ele>55</ele>
        <time>2020-01-25T14:43:46.000Z</time>
      </trkpt>
      <trkpt lat="48.50038" lon="-2.68281">
        <ele>55</ele>
        <time>2020-01-25T14:43:53.000Z</time>
      </trkpt>
      <trkpt lat="48.50048" lon="-2.68276">
        <ele>55</ele>
        <time>2020-01-25T14:44:00.000Z</time>
      </trkpt>
      <trkpt lat="48.50057" lon="-2.68272">
        <ele>53</ele>
        <time>2020-01-25T14:44:06.000Z</time>
      </trkpt>
      <trkpt lat="48.50066" lon="-2.68267">
        <ele>53</ele>
        <time>2020-01-25T14:44:13.000Z</time>
      </trkpt>
      <trkpt lat="48.50076" lon="-2.68263">
        <ele>52</ele>
        <time>2020-01-25T14:44:20.000Z</time>
      </trkpt>
      <trkpt lat="48.50085" lon="-2.68256">
        <ele>51</ele>
        <time>2020-01-25T14:44:27.000Z</time>
      </trkpt>
      <trkpt lat="48.50094" lon="-2.6825">
        <ele>51</ele>
        <time>2020-01-25T14:44:33.000Z</time>
      </trkpt>
      <trkpt lat="48.50103" lon="-2.68244">
        <ele>53</ele>
        <time>2020-01-25T14:44:39.000Z</time>
      </trkpt>
      <trkpt lat="48.50111" lon="-2.68236">
        <ele>53</ele>
        <time>2020-01-25T14:44:45.000Z</time>
      </trkpt>
      <trkpt lat="48.50119" lon="-2.68228">
        <ele>54</ele>
        <time>2020-01-25T14:44:51.000Z</time>
      </trkpt>
      <trkpt lat="48.50127" lon="-2.6822">
        <ele>55</ele>
        <time>2020-01-25T14:44:57.000Z</time>
      </trkpt>
      <trkpt lat="48.50134" lon="-2.6821">
        <ele>56</ele>
        <time>2020-01-25T14:45:04.000Z</time>
      </trkpt>
      <trkpt lat="48.50141" lon="-2.68199">
        <ele>56</ele>
        <time>2020-01-25T14:45:11.000Z</time>
      </trkpt>
      <trkpt lat="48.50147" lon="-2.68189">
        <ele>57</ele>
        <time>2020-01-25T14:45:17.000Z</time>
      </trkpt>
      <trkpt lat="48.50154" lon="-2.6818">
        <ele>57</ele>
        <time>2020-01-25T14:45:23.000Z</time>
      </trkpt>
      <trkpt lat="48.50161" lon="-2.68168">
        <ele>56</ele>
        <time>2020-01-25T14:45:30.000Z</time>
      </trkpt>
      <trkpt lat="48.50168" lon="-2.68158">
        <ele>56</ele>
        <time>2020-01-25T14:45:36.000Z</time>
      </trkpt>
      <trkpt lat="48.50175" lon="-2.68147">
        <ele>56</ele>
        <time>2020-01-25T14:45:43.000Z</time>
      </trkpt>
      <trkpt lat="48.50181" lon="-2.68135">
        <ele>55</ele>
        <time>2020-01-25T14:45:49.000Z</time>
      </trkpt>
      <trkpt lat="48.50187" lon="-2.68124">
        <ele>54</ele>
        <time>2020-01-25T14:45:55.000Z</time>
      </trkpt>
      <trkpt lat="48.50193" lon="-2.68112">
        <ele>54</ele>
        <time>2020-01-25T14:46:02.000Z</time>
      </trkpt>
      <trkpt lat="48.502" lon="-2.68102">
        <ele>54</ele>
        <time>2020-01-25T14:46:08.000Z</time>
      </trkpt>
      <trkpt lat="48.50206" lon="-2.6809">
        <ele>53</ele>
        <time>2020-01-25T14:46:14.000Z</time>
      </trkpt>
      <trkpt lat="48.50212" lon="-2.68079">
        <ele>54</ele>
        <time>2020-01-25T14:46:20.000Z</time>
      </trkpt>
      <trkpt lat="48.50218" lon="-2.68067">
        <ele>54</ele>
        <time>2020-01-25T14:46:26.000Z</time>
      </trkpt>
      <trkpt lat="48.50225" lon="-2.68053">
        <ele>54</ele>
        <time>2020-01-25T14:46:33.000Z</time>
      </trkpt>
      <trkpt lat="48.5023" lon="-2.68042">
        <ele>55</ele>
        <time>2020-01-25T14:46:39.000Z</time>
      </trkpt>
      <trkpt lat="48.50236" lon="-2.68029">
        <ele>55</ele>
        <time>2020-01-25T14:46:45.000Z</time>
      </trkpt>
      <trkpt lat="48.50242" lon="-2.68018">
        <ele>55</ele>
        <time>2020-01-25T14:46:52.000Z</time>
      </trkpt>
      <trkpt lat="48.5025" lon="-2.68005">
        <ele>56</ele>
        <time>2020-01-25T14:47:00.000Z</time>
      </trkpt>
      <trkpt lat="48.50255" lon="-2.67994">
        <ele>56</ele>
        <time>2020-01-25T14:47:06.000Z</time>
      </trkpt>
      <trkpt lat="48.50257" lon="-2.67981">
        <ele>56</ele>
        <time>2020-01-25T14:47:14.000Z</time>
      </trkpt>
      <trkpt lat="48.50265" lon="-2.6797">
        <ele>56</ele>
        <time>2020-01-25T14:47:28.000Z</time>
      </trkpt>
      <trkpt lat="48.50273" lon="-2.67963">
        <ele>56</ele>
        <time>2020-01-25T14:47:35.000Z</time>
      </trkpt>
      <trkpt lat="48.5028" lon="-2.67953">
        <ele>56</ele>
        <time>2020-01-25T14:47:41.000Z</time>
      </trkpt>
      <trkpt lat="48.50288" lon="-2.67945">
        <ele>56</ele>
        <time>2020-01-25T14:47:47.000Z</time>
      </trkpt>
      <trkpt lat="48.50297" lon="-2.67937">
        <ele>55</ele>
        <time>2020-01-25T14:47:54.000Z</time>
      </trkpt>
      <trkpt lat="48.50305" lon="-2.67928">
        <ele>55</ele>
        <time>2020-01-25T14:48:01.000Z</time>
      </trkpt>
      <trkpt lat="48.50306" lon="-2.67915">
        <ele>56</ele>
        <time>2020-01-25T14:48:08.000Z</time>
      </trkpt>
      <trkpt lat="48.50314" lon="-2.67906">
        <ele>58</ele>
        <time>2020-01-25T14:48:14.000Z</time>
      </trkpt>
      <trkpt lat="48.50322" lon="-2.67899">
        <ele>58</ele>
        <time>2020-01-25T14:48:21.000Z</time>
      </trkpt>
      <trkpt lat="48.50333" lon="-2.67893">
        <ele>60</ele>
        <time>2020-01-25T14:48:31.000Z</time>
      </trkpt>
      <trkpt lat="48.50343" lon="-2.67893">
        <ele>59</ele>
        <time>2020-01-25T14:48:38.000Z</time>
      </trkpt>
      <trkpt lat="48.50352" lon="-2.6789">
        <ele>59</ele>
        <time>2020-01-25T14:48:44.000Z</time>
      </trkpt>
      <trkpt lat="48.50361" lon="-2.67889">
        <ele>60</ele>
        <time>2020-01-25T14:48:49.000Z</time>
      </trkpt>
      <trkpt lat="48.5037" lon="-2.67883">
        <ele>59</ele>
        <time>2020-01-25T14:48:55.000Z</time>
      </trkpt>
      <trkpt lat="48.5038" lon="-2.67882">
        <ele>61</ele>
        <time>2020-01-25T14:49:02.000Z</time>
      </trkpt>
      <trkpt lat="48.50389" lon="-2.6788">
        <ele>60</ele>
        <time>2020-01-25T14:49:08.000Z</time>
      </trkpt>
      <trkpt lat="48.50397" lon="-2.67874">
        <ele>59</ele>
        <time>2020-01-25T14:49:15.000Z</time>
      </trkpt>
      <trkpt lat="48.50406" lon="-2.67869">
        <ele>59</ele>
        <time>2020-01-25T14:49:22.000Z</time>
      </trkpt>
      <trkpt lat="48.50415" lon="-2.67865">
        <ele>60</ele>
        <time>2020-01-25T14:49:29.000Z</time>
      </trkpt>
      <trkpt lat="48.50424" lon="-2.67861">
        <ele>61</ele>
        <time>2020-01-25T14:49:35.000Z</time>
      </trkpt>
      <trkpt lat="48.50433" lon="-2.67854">
        <ele>61</ele>
        <time>2020-01-25T14:49:42.000Z</time>
      </trkpt>
      <trkpt lat="48.50443" lon="-2.67855">
        <ele>64</ele>
        <time>2020-01-25T14:49:54.000Z</time>
      </trkpt>
      <trkpt lat="48.50452" lon="-2.6786">
        <ele>65</ele>
        <time>2020-01-25T14:50:00.000Z</time>
      </trkpt>
      <trkpt lat="48.50462" lon="-2.67862">
        <ele>64</ele>
        <time>2020-01-25T14:50:06.000Z</time>
      </trkpt>
      <trkpt lat="48.50472" lon="-2.67865">
        <ele>65</ele>
        <time>2020-01-25T14:50:13.000Z</time>
      </trkpt>
      <trkpt lat="48.50481" lon="-2.67868">
        <ele>65</ele>
        <time>2020-01-25T14:50:20.000Z</time>
      </trkpt>
      <trkpt lat="48.50491" lon="-2.67872">
        <ele>65</ele>
        <time>2020-01-25T14:50:27.000Z</time>
      </trkpt>
      <trkpt lat="48.50501" lon="-2.67875">
        <ele>65</ele>
        <time>2020-01-25T14:50:34.000Z</time>
      </trkpt>
      <trkpt lat="48.50511" lon="-2.67875">
        <ele>65</ele>
        <time>2020-01-25T14:50:41.000Z</time>
      </trkpt>
      <trkpt lat="48.5052" lon="-2.67878">
        <ele>66</ele>
        <time>2020-01-25T14:50:47.000Z</time>
      </trkpt>
      <trkpt lat="48.50529" lon="-2.67881">
        <ele>66</ele>
        <time>2020-01-25T14:50:53.000Z</time>
      </trkpt>
      <trkpt lat="48.50539" lon="-2.67883">
        <ele>67</ele>
        <time>2020-01-25T14:51:00.000Z</time>
      </trkpt>
      <trkpt lat="48.50548" lon="-2.67878">
        <ele>66</ele>
        <time>2020-01-25T14:51:07.000Z</time>
      </trkpt>
      <trkpt lat="48.50557" lon="-2.67871">
        <ele>68</ele>
        <time>2020-01-25T14:51:15.000Z</time>
      </trkpt>
      <trkpt lat="48.50562" lon="-2.67858">
        <ele>70</ele>
        <time>2020-01-25T14:51:23.000Z</time>
      </trkpt>
      <trkpt lat="48.50566" lon="-2.67846">
        <ele>71</ele>
        <time>2020-01-25T14:51:31.000Z</time>
      </trkpt>
      <trkpt lat="48.50573" lon="-2.67836">
        <ele>72</ele>
        <time>2020-01-25T14:51:38.000Z</time>
      </trkpt>
      <trkpt lat="48.50583" lon="-2.67829">
        <ele>73</ele>
        <time>2020-01-25T14:51:45.000Z</time>
      </trkpt>
      <trkpt lat="48.50591" lon="-2.67825">
        <ele>73</ele>
        <time>2020-01-25T14:51:51.000Z</time>
      </trkpt>
      <trkpt lat="48.506" lon="-2.67821">
        <ele>74</ele>
        <time>2020-01-25T14:51:57.000Z</time>
      </trkpt>
      <trkpt lat="48.50609" lon="-2.67815">
        <ele>73</ele>
        <time>2020-01-25T14:52:03.000Z</time>
      </trkpt>
      <trkpt lat="48.50619" lon="-2.67814">
        <ele>72</ele>
        <time>2020-01-25T14:52:10.000Z</time>
      </trkpt>
      <trkpt lat="48.50628" lon="-2.67812">
        <ele>71</ele>
        <time>2020-01-25T14:52:18.000Z</time>
      </trkpt>
      <trkpt lat="48.50637" lon="-2.6781">
        <ele>70</ele>
        <time>2020-01-25T14:52:24.000Z</time>
      </trkpt>
      <trkpt lat="48.50644" lon="-2.67799">
        <ele>69</ele>
        <time>2020-01-25T14:52:30.000Z</time>
      </trkpt>
      <trkpt lat="48.50648" lon="-2.67786">
        <ele>70</ele>
        <time>2020-01-25T14:52:38.000Z</time>
      </trkpt>
      <trkpt lat="48.50648" lon="-2.6777">
        <ele>72</ele>
        <time>2020-01-25T14:52:46.000Z</time>
      </trkpt>
      <trkpt lat="48.50653" lon="-2.67758">
        <ele>72</ele>
        <time>2020-01-25T14:52:54.000Z</time>
      </trkpt>
      <trkpt lat="48.50662" lon="-2.67752">
        <ele>71</ele>
        <time>2020-01-25T14:53:02.000Z</time>
      </trkpt>
      <trkpt lat="48.50671" lon="-2.67748">
        <ele>71</ele>
        <time>2020-01-25T14:53:08.000Z</time>
      </trkpt>
      <trkpt lat="48.5068" lon="-2.67748">
        <ele>72</ele>
        <time>2020-01-25T14:53:15.000Z</time>
      </trkpt>
      <trkpt lat="48.5069" lon="-2.67751">
        <ele>70</ele>
        <time>2020-01-25T14:53:20.000Z</time>
      </trkpt>
      <trkpt lat="48.50698" lon="-2.67745">
        <ele>71</ele>
        <time>2020-01-25T14:53:26.000Z</time>
      </trkpt>
      <trkpt lat="48.50704" lon="-2.67734">
        <ele>70</ele>
        <time>2020-01-25T14:53:33.000Z</time>
      </trkpt>
      <trkpt lat="48.50711" lon="-2.67724">
        <ele>69</ele>
        <time>2020-01-25T14:53:40.000Z</time>
      </trkpt>
      <trkpt lat="48.50718" lon="-2.67712">
        <ele>68</ele>
        <time>2020-01-25T14:53:47.000Z</time>
      </trkpt>
      <trkpt lat="48.50725" lon="-2.67701">
        <ele>68</ele>
        <time>2020-01-25T14:53:54.000Z</time>
      </trkpt>
      <trkpt lat="48.50732" lon="-2.6769">
        <ele>67</ele>
        <time>2020-01-25T14:54:01.000Z</time>
      </trkpt>
      <trkpt lat="48.5074" lon="-2.67681">
        <ele>68</ele>
        <time>2020-01-25T14:54:08.000Z</time>
      </trkpt>
      <trkpt lat="48.50746" lon="-2.6767">
        <ele>68</ele>
        <time>2020-01-25T14:54:14.000Z</time>
      </trkpt>
      <trkpt lat="48.50752" lon="-2.67657">
        <ele>68</ele>
        <time>2020-01-25T14:54:22.000Z</time>
      </trkpt>
      <trkpt lat="48.50759" lon="-2.67647">
        <ele>68</ele>
        <time>2020-01-25T14:54:29.000Z</time>
      </trkpt>
      <trkpt lat="48.50766" lon="-2.67637">
        <ele>70</ele>
        <time>2020-01-25T14:54:37.000Z</time>
      </trkpt>
      <trkpt lat="48.50773" lon="-2.67626">
        <ele>69</ele>
        <time>2020-01-25T14:54:44.000Z</time>
      </trkpt>
      <trkpt lat="48.5078" lon="-2.67616">
        <ele>67</ele>
        <time>2020-01-25T14:54:50.000Z</time>
      </trkpt>
      <trkpt lat="48.50789" lon="-2.67607">
        <ele>68</ele>
        <time>2020-01-25T14:54:57.000Z</time>
      </trkpt>
      <trkpt lat="48.50797" lon="-2.676">
        <ele>67</ele>
        <time>2020-01-25T14:55:04.000Z</time>
      </trkpt>
      <trkpt lat="48.50804" lon="-2.67592">
        <ele>66</ele>
        <time>2020-01-25T14:55:11.000Z</time>
      </trkpt>
      <trkpt lat="48.50813" lon="-2.6759">
        <ele>65</ele>
        <time>2020-01-25T14:55:19.000Z</time>
      </trkpt>
      <trkpt lat="48.50825" lon="-2.67579">
        <ele>65</ele>
        <time>2020-01-25T14:55:29.000Z</time>
      </trkpt>
      <trkpt lat="48.50833" lon="-2.6757">
        <ele>64</ele>
        <time>2020-01-25T14:55:34.000Z</time>
      </trkpt>
      <trkpt lat="48.5084" lon="-2.6756">
        <ele>65</ele>
        <time>2020-01-25T14:55:39.000Z</time>
      </trkpt>
      <trkpt lat="48.50849" lon="-2.67551">
        <ele>65</ele>
        <time>2020-01-25T14:55:45.000Z</time>
      </trkpt>
      <trkpt lat="48.50858" lon="-2.67545">
        <ele>66</ele>
        <time>2020-01-25T14:55:52.000Z</time>
      </trkpt>
      <trkpt lat="48.50868" lon="-2.67538">
        <ele>67</ele>
        <time>2020-01-25T14:55:59.000Z</time>
      </trkpt>
      <trkpt lat="48.50877" lon="-2.67531">
        <ele>66</ele>
        <time>2020-01-25T14:56:11.000Z</time>
      </trkpt>
      <trkpt lat="48.50883" lon="-2.6752">
        <ele>68</ele>
        <time>2020-01-25T14:56:18.000Z</time>
      </trkpt>
      <trkpt lat="48.50891" lon="-2.67515">
        <ele>69</ele>
        <time>2020-01-25T14:56:24.000Z</time>
      </trkpt>
      <trkpt lat="48.50901" lon="-2.67511">
        <ele>69</ele>
        <time>2020-01-25T14:56:30.000Z</time>
      </trkpt>
      <trkpt lat="48.50911" lon="-2.67512">
        <ele>69</ele>
        <time>2020-01-25T14:56:36.000Z</time>
      </trkpt>
      <trkpt lat="48.50922" lon="-2.67511">
        <ele>69</ele>
        <time>2020-01-25T14:56:43.000Z</time>
      </trkpt>
      <trkpt lat="48.50931" lon="-2.6751">
        <ele>70</ele>
        <time>2020-01-25T14:56:50.000Z</time>
      </trkpt>
      <trkpt lat="48.5094" lon="-2.67508">
        <ele>68</ele>
        <time>2020-01-25T14:56:56.000Z</time>
      </trkpt>
      <trkpt lat="48.5095" lon="-2.67505">
        <ele>68</ele>
        <time>2020-01-25T14:57:04.000Z</time>
      </trkpt>
      <trkpt lat="48.5096" lon="-2.67502">
        <ele>67</ele>
        <time>2020-01-25T14:57:10.000Z</time>
      </trkpt>
      <trkpt lat="48.50969" lon="-2.67504">
        <ele>66</ele>
        <time>2020-01-25T14:57:17.000Z</time>
      </trkpt>
      <trkpt lat="48.50978" lon="-2.67509">
        <ele>65</ele>
        <time>2020-01-25T14:57:24.000Z</time>
      </trkpt>
      <trkpt lat="48.50987" lon="-2.67514">
        <ele>64</ele>
        <time>2020-01-25T14:57:30.000Z</time>
      </trkpt>
      <trkpt lat="48.50997" lon="-2.67513">
        <ele>65</ele>
        <time>2020-01-25T14:57:37.000Z</time>
      </trkpt>
      <trkpt lat="48.51007" lon="-2.67514">
        <ele>65</ele>
        <time>2020-01-25T14:57:43.000Z</time>
      </trkpt>
      <trkpt lat="48.51016" lon="-2.67516">
        <ele>64</ele>
        <time>2020-01-25T14:57:49.000Z</time>
      </trkpt>
      <trkpt lat="48.51025" lon="-2.6752">
        <ele>64</ele>
        <time>2020-01-25T14:57:55.000Z</time>
      </trkpt>
      <trkpt lat="48.51033" lon="-2.67525">
        <ele>65</ele>
        <time>2020-01-25T14:58:01.000Z</time>
      </trkpt>
      <trkpt lat="48.51043" lon="-2.67531">
        <ele>64</ele>
        <time>2020-01-25T14:58:08.000Z</time>
      </trkpt>
      <trkpt lat="48.51052" lon="-2.67534">
        <ele>63</ele>
        <time>2020-01-25T14:58:15.000Z</time>
      </trkpt>
      <trkpt lat="48.51062" lon="-2.67537">
        <ele>62</ele>
        <time>2020-01-25T14:58:22.000Z</time>
      </trkpt>
      <trkpt lat="48.51071" lon="-2.67542">
        <ele>61</ele>
        <time>2020-01-25T14:58:30.000Z</time>
      </trkpt>
      <trkpt lat="48.51078" lon="-2.67552">
        <ele>60</ele>
        <time>2020-01-25T14:58:37.000Z</time>
      </trkpt>
      <trkpt lat="48.51084" lon="-2.67563">
        <ele>59</ele>
        <time>2020-01-25T14:58:44.000Z</time>
      </trkpt>
      <trkpt lat="48.51093" lon="-2.6757">
        <ele>58</ele>
        <time>2020-01-25T14:58:54.000Z</time>
      </trkpt>
      <trkpt lat="48.51097" lon="-2.67556">
        <ele>58</ele>
        <time>2020-01-25T14:59:01.000Z</time>
      </trkpt>
      <trkpt lat="48.511" lon="-2.67543">
        <ele>59</ele>
        <time>2020-01-25T14:59:08.000Z</time>
      </trkpt>
      <trkpt lat="48.51104" lon="-2.6753">
        <ele>60</ele>
        <time>2020-01-25T14:59:15.000Z</time>
      </trkpt>
      <trkpt lat="48.51107" lon="-2.67517">
        <ele>60</ele>
        <time>2020-01-25T14:59:22.000Z</time>
      </trkpt>
      <trkpt lat="48.51111" lon="-2.67504">
        <ele>60</ele>
        <time>2020-01-25T14:59:29.000Z</time>
      </trkpt>
      <trkpt lat="48.51115" lon="-2.67491">
        <ele>61</ele>
        <time>2020-01-25T14:59:36.000Z</time>
      </trkpt>
      <trkpt lat="48.51119" lon="-2.67478">
        <ele>61</ele>
        <time>2020-01-25T14:59:43.000Z</time>
      </trkpt>
      <trkpt lat="48.51123" lon="-2.67465">
        <ele>62</ele>
        <time>2020-01-25T14:59:50.000Z</time>
      </trkpt>
      <trkpt lat="48.51126" lon="-2.67451">
        <ele>64</ele>
        <time>2020-01-25T14:59:58.000Z</time>
      </trkpt>
      <trkpt lat="48.5113" lon="-2.67438">
        <ele>64</ele>
        <time>2020-01-25T15:00:04.000Z</time>
      </trkpt>
      <trkpt lat="48.51133" lon="-2.67425">
        <ele>65</ele>
        <time>2020-01-25T15:00:10.000Z</time>
      </trkpt>
      <trkpt lat="48.51137" lon="-2.67411">
        <ele>65</ele>
        <time>2020-01-25T15:00:17.000Z</time>
      </trkpt>
      <trkpt lat="48.5114" lon="-2.67396">
        <ele>67</ele>
        <time>2020-01-25T15:00:24.000Z</time>
      </trkpt>
      <trkpt lat="48.51145" lon="-2.67383">
        <ele>68</ele>
        <time>2020-01-25T15:00:31.000Z</time>
      </trkpt>
      <trkpt lat="48.5115" lon="-2.6737">
        <ele>68</ele>
        <time>2020-01-25T15:00:38.000Z</time>
      </trkpt>
      <trkpt lat="48.51155" lon="-2.67357">
        <ele>68</ele>
        <time>2020-01-25T15:00:45.000Z</time>
      </trkpt>
      <trkpt lat="48.5116" lon="-2.67343">
        <ele>69</ele>
        <time>2020-01-25T15:00:52.000Z</time>
      </trkpt>
      <trkpt lat="48.51165" lon="-2.67331">
        <ele>69</ele>
        <time>2020-01-25T15:00:58.000Z</time>
      </trkpt>
      <trkpt lat="48.5117" lon="-2.67318">
        <ele>68</ele>
        <time>2020-01-25T15:01:04.000Z</time>
      </trkpt>
      <trkpt lat="48.51175" lon="-2.67304">
        <ele>69</ele>
        <time>2020-01-25T15:01:11.000Z</time>
      </trkpt>
      <trkpt lat="48.51178" lon="-2.67291">
        <ele>69</ele>
        <time>2020-01-25T15:01:17.000Z</time>
      </trkpt>
      <trkpt lat="48.51181" lon="-2.67278">
        <ele>68</ele>
        <time>2020-01-25T15:01:23.000Z</time>
      </trkpt>
      <trkpt lat="48.51186" lon="-2.67261">
        <ele>69</ele>
        <time>2020-01-25T15:01:31.000Z</time>
      </trkpt>
      <trkpt lat="48.51189" lon="-2.67248">
        <ele>69</ele>
        <time>2020-01-25T15:01:37.000Z</time>
      </trkpt>
      <trkpt lat="48.51192" lon="-2.67234">
        <ele>69</ele>
        <time>2020-01-25T15:01:43.000Z</time>
      </trkpt>
      <trkpt lat="48.51196" lon="-2.67219">
        <ele>70</ele>
        <time>2020-01-25T15:01:50.000Z</time>
      </trkpt>
      <trkpt lat="48.51202" lon="-2.67208">
        <ele>71</ele>
        <time>2020-01-25T15:01:57.000Z</time>
      </trkpt>
      <trkpt lat="48.51208" lon="-2.67197">
        <ele>71</ele>
        <time>2020-01-25T15:02:03.000Z</time>
      </trkpt>
      <trkpt lat="48.51215" lon="-2.67185">
        <ele>71</ele>
        <time>2020-01-25T15:02:10.000Z</time>
      </trkpt>
      <trkpt lat="48.51221" lon="-2.67175">
        <ele>71</ele>
        <time>2020-01-25T15:02:17.000Z</time>
      </trkpt>
      <trkpt lat="48.51227" lon="-2.67163">
        <ele>72</ele>
        <time>2020-01-25T15:02:24.000Z</time>
      </trkpt>
      <trkpt lat="48.51232" lon="-2.67152">
        <ele>72</ele>
        <time>2020-01-25T15:02:30.000Z</time>
      </trkpt>
      <trkpt lat="48.51238" lon="-2.67139">
        <ele>72</ele>
        <time>2020-01-25T15:02:37.000Z</time>
      </trkpt>
      <trkpt lat="48.51244" lon="-2.67127">
        <ele>73</ele>
        <time>2020-01-25T15:02:44.000Z</time>
      </trkpt>
      <trkpt lat="48.51249" lon="-2.67116">
        <ele>73</ele>
        <time>2020-01-25T15:02:50.000Z</time>
      </trkpt>
      <trkpt lat="48.51254" lon="-2.67101">
        <ele>73</ele>
        <time>2020-01-25T15:02:57.000Z</time>
      </trkpt>
      <trkpt lat="48.51259" lon="-2.67088">
        <ele>73</ele>
        <time>2020-01-25T15:03:04.000Z</time>
      </trkpt>
      <trkpt lat="48.51263" lon="-2.67074">
        <ele>73</ele>
        <time>2020-01-25T15:03:11.000Z</time>
      </trkpt>
      <trkpt lat="48.51267" lon="-2.67061">
        <ele>73</ele>
        <time>2020-01-25T15:03:17.000Z</time>
      </trkpt>
      <trkpt lat="48.51271" lon="-2.67048">
        <ele>74</ele>
        <time>2020-01-25T15:03:23.000Z</time>
      </trkpt>
      <trkpt lat="48.51275" lon="-2.67035">
        <ele>73</ele>
        <time>2020-01-25T15:03:29.000Z</time>
      </trkpt>
      <trkpt lat="48.51278" lon="-2.67022">
        <ele>74</ele>
        <time>2020-01-25T15:03:35.000Z</time>
      </trkpt>
      <trkpt lat="48.51272" lon="-2.67011">
        <ele>75</ele>
        <time>2020-01-25T15:03:45.000Z</time>
      </trkpt>
      <trkpt lat="48.51262" lon="-2.67014">
        <ele>76</ele>
        <time>2020-01-25T15:03:52.000Z</time>
      </trkpt>
      <trkpt lat="48.51252" lon="-2.67013">
        <ele>76</ele>
        <time>2020-01-25T15:03:58.000Z</time>
      </trkpt>
      <trkpt lat="48.51243" lon="-2.67017">
        <ele>76</ele>
        <time>2020-01-25T15:04:04.000Z</time>
      </trkpt>
      <trkpt lat="48.51231" lon="-2.67019">
        <ele>77</ele>
        <time>2020-01-25T15:04:13.000Z</time>
      </trkpt>
      <trkpt lat="48.51222" lon="-2.67021">
        <ele>79</ele>
        <time>2020-01-25T15:04:20.000Z</time>
      </trkpt>
      <trkpt lat="48.51213" lon="-2.67023">
        <ele>78</ele>
        <time>2020-01-25T15:04:26.000Z</time>
      </trkpt>
      <trkpt lat="48.51203" lon="-2.67024">
        <ele>79</ele>
        <time>2020-01-25T15:04:32.000Z</time>
      </trkpt>
      <trkpt lat="48.51192" lon="-2.67025">
        <ele>79</ele>
        <time>2020-01-25T15:04:39.000Z</time>
      </trkpt>
      <trkpt lat="48.51182" lon="-2.67025">
        <ele>79</ele>
        <time>2020-01-25T15:04:46.000Z</time>
      </trkpt>
      <trkpt lat="48.51172" lon="-2.67025">
        <ele>78</ele>
        <time>2020-01-25T15:04:53.000Z</time>
      </trkpt>
      <trkpt lat="48.51162" lon="-2.67026">
        <ele>78</ele>
        <time>2020-01-25T15:05:00.000Z</time>
      </trkpt>
      <trkpt lat="48.51153" lon="-2.67026">
        <ele>78</ele>
        <time>2020-01-25T15:05:06.000Z</time>
      </trkpt>
      <trkpt lat="48.51143" lon="-2.67026">
        <ele>78</ele>
        <time>2020-01-25T15:05:13.000Z</time>
      </trkpt>
      <trkpt lat="48.51133" lon="-2.67026">
        <ele>78</ele>
        <time>2020-01-25T15:05:20.000Z</time>
      </trkpt>
      <trkpt lat="48.51124" lon="-2.67024">
        <ele>78</ele>
        <time>2020-01-25T15:05:26.000Z</time>
      </trkpt>
      <trkpt lat="48.51115" lon="-2.67024">
        <ele>79</ele>
        <time>2020-01-25T15:05:33.000Z</time>
      </trkpt>
      <trkpt lat="48.51104" lon="-2.67023">
        <ele>78</ele>
        <time>2020-01-25T15:05:40.000Z</time>
      </trkpt>
      <trkpt lat="48.51094" lon="-2.67023">
        <ele>80</ele>
        <time>2020-01-25T15:05:47.000Z</time>
      </trkpt>
      <trkpt lat="48.51083" lon="-2.67021">
        <ele>81</ele>
        <time>2020-01-25T15:05:54.000Z</time>
      </trkpt>
      <trkpt lat="48.51073" lon="-2.6702">
        <ele>81</ele>
        <time>2020-01-25T15:06:00.000Z</time>
      </trkpt>
      <trkpt lat="48.51064" lon="-2.67023">
        <ele>80</ele>
        <time>2020-01-25T15:06:06.000Z</time>
      </trkpt>
      <trkpt lat="48.51057" lon="-2.67033">
        <ele>82</ele>
        <time>2020-01-25T15:06:12.000Z</time>
      </trkpt>
      <trkpt lat="48.51051" lon="-2.67043">
        <ele>82</ele>
        <time>2020-01-25T15:06:18.000Z</time>
      </trkpt>
      <trkpt lat="48.51044" lon="-2.67055">
        <ele>81</ele>
        <time>2020-01-25T15:06:25.000Z</time>
      </trkpt>
      <trkpt lat="48.51039" lon="-2.67066">
        <ele>81</ele>
        <time>2020-01-25T15:06:31.000Z</time>
      </trkpt>
      <trkpt lat="48.51034" lon="-2.67079">
        <ele>80</ele>
        <time>2020-01-25T15:06:38.000Z</time>
      </trkpt>
      <trkpt lat="48.51035" lon="-2.67093">
        <ele>83</ele>
        <time>2020-01-25T15:06:46.000Z</time>
      </trkpt>
      <trkpt lat="48.51025" lon="-2.6709">
        <ele>80</ele>
        <time>2020-01-25T15:07:19.000Z</time>
      </trkpt>
      <trkpt lat="48.51018" lon="-2.67102">
        <ele>79</ele>
        <time>2020-01-25T15:07:26.000Z</time>
      </trkpt>
      <trkpt lat="48.51009" lon="-2.67111">
        <ele>79</ele>
        <time>2020-01-25T15:07:32.000Z</time>
      </trkpt>
      <trkpt lat="48.51001" lon="-2.67119">
        <ele>80</ele>
        <time>2020-01-25T15:07:38.000Z</time>
      </trkpt>
      <trkpt lat="48.50991" lon="-2.67124">
        <ele>80</ele>
        <time>2020-01-25T15:07:44.000Z</time>
      </trkpt>
      <trkpt lat="48.50982" lon="-2.67129">
        <ele>81</ele>
        <time>2020-01-25T15:07:50.000Z</time>
      </trkpt>
      <trkpt lat="48.50972" lon="-2.67134">
        <ele>81</ele>
        <time>2020-01-25T15:07:58.000Z</time>
      </trkpt>
      <trkpt lat="48.50964" lon="-2.67137">
        <ele>80</ele>
        <time>2020-01-25T15:08:04.000Z</time>
      </trkpt>
      <trkpt lat="48.50955" lon="-2.6714">
        <ele>80</ele>
        <time>2020-01-25T15:08:10.000Z</time>
      </trkpt>
      <trkpt lat="48.50946" lon="-2.67144">
        <ele>79</ele>
        <time>2020-01-25T15:08:15.000Z</time>
      </trkpt>
      <trkpt lat="48.50937" lon="-2.6715">
        <ele>80</ele>
        <time>2020-01-25T15:08:21.000Z</time>
      </trkpt>
      <trkpt lat="48.50927" lon="-2.67153">
        <ele>80</ele>
        <time>2020-01-25T15:08:27.000Z</time>
      </trkpt>
      <trkpt lat="48.50918" lon="-2.67157">
        <ele>81</ele>
        <time>2020-01-25T15:08:33.000Z</time>
      </trkpt>
      <trkpt lat="48.50909" lon="-2.67161">
        <ele>81</ele>
        <time>2020-01-25T15:08:40.000Z</time>
      </trkpt>
      <trkpt lat="48.50899" lon="-2.67164">
        <ele>79</ele>
        <time>2020-01-25T15:08:48.000Z</time>
      </trkpt>
      <trkpt lat="48.50889" lon="-2.67166">
        <ele>77</ele>
        <time>2020-01-25T15:08:54.000Z</time>
      </trkpt>
      <trkpt lat="48.5088" lon="-2.6717">
        <ele>77</ele>
        <time>2020-01-25T15:09:01.000Z</time>
      </trkpt>
      <trkpt lat="48.5087" lon="-2.67175">
        <ele>77</ele>
        <time>2020-01-25T15:09:08.000Z</time>
      </trkpt>
      <trkpt lat="48.50861" lon="-2.6718">
        <ele>77</ele>
        <time>2020-01-25T15:09:14.000Z</time>
      </trkpt>
      <trkpt lat="48.50852" lon="-2.67183">
        <ele>76</ele>
        <time>2020-01-25T15:09:20.000Z</time>
      </trkpt>
      <trkpt lat="48.50842" lon="-2.67187">
        <ele>76</ele>
        <time>2020-01-25T15:09:26.000Z</time>
      </trkpt>
      <trkpt lat="48.50833" lon="-2.67192">
        <ele>76</ele>
        <time>2020-01-25T15:09:33.000Z</time>
      </trkpt>
      <trkpt lat="48.50824" lon="-2.67194">
        <ele>74</ele>
        <time>2020-01-25T15:09:40.000Z</time>
      </trkpt>
      <trkpt lat="48.50815" lon="-2.67198">
        <ele>76</ele>
        <time>2020-01-25T15:09:46.000Z</time>
      </trkpt>
      <trkpt lat="48.50806" lon="-2.67203">
        <ele>76</ele>
        <time>2020-01-25T15:09:53.000Z</time>
      </trkpt>
      <trkpt lat="48.50796" lon="-2.67207">
        <ele>75</ele>
        <time>2020-01-25T15:10:00.000Z</time>
      </trkpt>
      <trkpt lat="48.50786" lon="-2.67212">
        <ele>76</ele>
        <time>2020-01-25T15:10:07.000Z</time>
      </trkpt>
      <trkpt lat="48.50776" lon="-2.67218">
        <ele>77</ele>
        <time>2020-01-25T15:10:15.000Z</time>
      </trkpt>
      <trkpt lat="48.50767" lon="-2.67219">
        <ele>76</ele>
        <time>2020-01-25T15:10:26.000Z</time>
      </trkpt>
      <trkpt lat="48.50758" lon="-2.67223">
        <ele>75</ele>
        <time>2020-01-25T15:10:33.000Z</time>
      </trkpt>
      <trkpt lat="48.50748" lon="-2.67228">
        <ele>75</ele>
        <time>2020-01-25T15:10:39.000Z</time>
      </trkpt>
      <trkpt lat="48.5074" lon="-2.67232">
        <ele>75</ele>
        <time>2020-01-25T15:10:45.000Z</time>
      </trkpt>
      <trkpt lat="48.50731" lon="-2.67237">
        <ele>77</ele>
        <time>2020-01-25T15:10:51.000Z</time>
      </trkpt>
      <trkpt lat="48.50721" lon="-2.67241">
        <ele>76</ele>
        <time>2020-01-25T15:10:57.000Z</time>
      </trkpt>
      <trkpt lat="48.50712" lon="-2.67246">
        <ele>76</ele>
        <time>2020-01-25T15:11:03.000Z</time>
      </trkpt>
      <trkpt lat="48.50703" lon="-2.6725">
        <ele>77</ele>
        <time>2020-01-25T15:11:09.000Z</time>
      </trkpt>
      <trkpt lat="48.50694" lon="-2.67255">
        <ele>78</ele>
        <time>2020-01-25T15:11:16.000Z</time>
      </trkpt>
      <trkpt lat="48.50684" lon="-2.67259">
        <ele>79</ele>
        <time>2020-01-25T15:11:22.000Z</time>
      </trkpt>
      <trkpt lat="48.50674" lon="-2.67263">
        <ele>79</ele>
        <time>2020-01-25T15:11:28.000Z</time>
      </trkpt>
      <trkpt lat="48.50666" lon="-2.67268">
        <ele>79</ele>
        <time>2020-01-25T15:11:34.000Z</time>
      </trkpt>
      <trkpt lat="48.50656" lon="-2.67273">
        <ele>79</ele>
        <time>2020-01-25T15:11:41.000Z</time>
      </trkpt>
      <trkpt lat="48.50647" lon="-2.67277">
        <ele>79</ele>
        <time>2020-01-25T15:11:48.000Z</time>
      </trkpt>
      <trkpt lat="48.50638" lon="-2.6728">
        <ele>80</ele>
        <time>2020-01-25T15:11:55.000Z</time>
      </trkpt>
      <trkpt lat="48.50628" lon="-2.67284">
        <ele>78</ele>
        <time>2020-01-25T15:12:15.000Z</time>
      </trkpt>
      <trkpt lat="48.50618" lon="-2.67288">
        <ele>78</ele>
        <time>2020-01-25T15:12:21.000Z</time>
      </trkpt>
      <trkpt lat="48.50609" lon="-2.67292">
        <ele>78</ele>
        <time>2020-01-25T15:12:27.000Z</time>
      </trkpt>
      <trkpt lat="48.50598" lon="-2.67295">
        <ele>78</ele>
        <time>2020-01-25T15:12:34.000Z</time>
      </trkpt>
      <trkpt lat="48.50589" lon="-2.67297">
        <ele>77</ele>
        <time>2020-01-25T15:12:40.000Z</time>
      </trkpt>
      <trkpt lat="48.5058" lon="-2.673">
        <ele>77</ele>
        <time>2020-01-25T15:12:46.000Z</time>
      </trkpt>
      <trkpt lat="48.50571" lon="-2.67302">
        <ele>78</ele>
        <time>2020-01-25T15:12:52.000Z</time>
      </trkpt>
      <trkpt lat="48.50561" lon="-2.67305">
        <ele>78</ele>
        <time>2020-01-25T15:12:58.000Z</time>
      </trkpt>
      <trkpt lat="48.50552" lon="-2.67308">
        <ele>78</ele>
        <time>2020-01-25T15:13:04.000Z</time>
      </trkpt>
      <trkpt lat="48.50542" lon="-2.6731">
        <ele>79</ele>
        <time>2020-01-25T15:13:11.000Z</time>
      </trkpt>
      <trkpt lat="48.50533" lon="-2.67314">
        <ele>78</ele>
        <time>2020-01-25T15:13:17.000Z</time>
      </trkpt>
      <trkpt lat="48.50524" lon="-2.67316">
        <ele>80</ele>
        <time>2020-01-25T15:13:24.000Z</time>
      </trkpt>
      <trkpt lat="48.50515" lon="-2.67318">
        <ele>80</ele>
        <time>2020-01-25T15:13:30.000Z</time>
      </trkpt>
      <trkpt lat="48.50505" lon="-2.67316">
        <ele>79</ele>
        <time>2020-01-25T15:13:35.000Z</time>
      </trkpt>
      <trkpt lat="48.50495" lon="-2.67315">
        <ele>77</ele>
        <time>2020-01-25T15:13:40.000Z</time>
      </trkpt>
      <trkpt lat="48.50486" lon="-2.67316">
        <ele>77</ele>
        <time>2020-01-25T15:13:46.000Z</time>
      </trkpt>
      <trkpt lat="48.50476" lon="-2.67319">
        <ele>77</ele>
        <time>2020-01-25T15:13:52.000Z</time>
      </trkpt>
      <trkpt lat="48.50467" lon="-2.67322">
        <ele>79</ele>
        <time>2020-01-25T15:13:58.000Z</time>
      </trkpt>
      <trkpt lat="48.50457" lon="-2.67326">
        <ele>78</ele>
        <time>2020-01-25T15:14:05.000Z</time>
      </trkpt>
      <trkpt lat="48.50448" lon="-2.67328">
        <ele>76</ele>
        <time>2020-01-25T15:14:12.000Z</time>
      </trkpt>
      <trkpt lat="48.50439" lon="-2.6733">
        <ele>76</ele>
        <time>2020-01-25T15:14:18.000Z</time>
      </trkpt>
      <trkpt lat="48.50429" lon="-2.67334">
        <ele>77</ele>
        <time>2020-01-25T15:14:25.000Z</time>
      </trkpt>
      <trkpt lat="48.50418" lon="-2.67334">
        <ele>76</ele>
        <time>2020-01-25T15:14:35.000Z</time>
      </trkpt>
      <trkpt lat="48.50408" lon="-2.67336">
        <ele>74</ele>
        <time>2020-01-25T15:14:43.000Z</time>
      </trkpt>
      <trkpt lat="48.50398" lon="-2.67338">
        <ele>75</ele>
        <time>2020-01-25T15:14:51.000Z</time>
      </trkpt>
      <trkpt lat="48.50389" lon="-2.67346">
        <ele>74</ele>
        <time>2020-01-25T15:15:01.000Z</time>
      </trkpt>
      <trkpt lat="48.5038" lon="-2.67354">
        <ele>73</ele>
        <time>2020-01-25T15:15:07.000Z</time>
      </trkpt>
      <trkpt lat="48.50373" lon="-2.67363">
        <ele>71</ele>
        <time>2020-01-25T15:15:13.000Z</time>
      </trkpt>
      <trkpt lat="48.50366" lon="-2.67372">
        <ele>71</ele>
        <time>2020-01-25T15:15:20.000Z</time>
      </trkpt>
      <trkpt lat="48.50358" lon="-2.6738">
        <ele>71</ele>
        <time>2020-01-25T15:15:27.000Z</time>
      </trkpt>
      <trkpt lat="48.5035" lon="-2.67388">
        <ele>72</ele>
        <time>2020-01-25T15:15:34.000Z</time>
      </trkpt>
      <trkpt lat="48.50342" lon="-2.67398">
        <ele>71</ele>
        <time>2020-01-25T15:15:40.000Z</time>
      </trkpt>
      <trkpt lat="48.50336" lon="-2.67408">
        <ele>70</ele>
        <time>2020-01-25T15:15:46.000Z</time>
      </trkpt>
      <trkpt lat="48.50329" lon="-2.67417">
        <ele>70</ele>
        <time>2020-01-25T15:15:53.000Z</time>
      </trkpt>
      <trkpt lat="48.50327" lon="-2.67431">
        <ele>67</ele>
        <time>2020-01-25T15:16:01.000Z</time>
      </trkpt>
      <trkpt lat="48.50328" lon="-2.67446">
        <ele>67</ele>
        <time>2020-01-25T15:16:07.000Z</time>
      </trkpt>
      <trkpt lat="48.50328" lon="-2.6746">
        <ele>68</ele>
        <time>2020-01-25T15:16:14.000Z</time>
      </trkpt>
      <trkpt lat="48.50327" lon="-2.67474">
        <ele>69</ele>
        <time>2020-01-25T15:16:21.000Z</time>
      </trkpt>
      <trkpt lat="48.50326" lon="-2.67488">
        <ele>71</ele>
        <time>2020-01-25T15:16:28.000Z</time>
      </trkpt>
      <trkpt lat="48.50327" lon="-2.67473">
        <ele>73</ele>
        <time>2020-01-25T15:16:38.000Z</time>
      </trkpt>
      <trkpt lat="48.50327" lon="-2.67459">
        <ele>72</ele>
        <time>2020-01-25T15:16:45.000Z</time>
      </trkpt>
      <trkpt lat="48.50327" lon="-2.67443">
        <ele>70</ele>
        <time>2020-01-25T15:16:52.000Z</time>
      </trkpt>
      <trkpt lat="48.50328" lon="-2.67428">
        <ele>71</ele>
        <time>2020-01-25T15:16:59.000Z</time>
      </trkpt>
      <trkpt lat="48.50319" lon="-2.67424">
        <ele>71</ele>
        <time>2020-01-25T15:17:09.000Z</time>
      </trkpt>
      <trkpt lat="48.50311" lon="-2.67429">
        <ele>73</ele>
        <time>2020-01-25T15:17:16.000Z</time>
      </trkpt>
      <trkpt lat="48.50301" lon="-2.67432">
        <ele>71</ele>
        <time>2020-01-25T15:17:22.000Z</time>
      </trkpt>
      <trkpt lat="48.50291" lon="-2.67431">
        <ele>72</ele>
        <time>2020-01-25T15:17:29.000Z</time>
      </trkpt>
      <trkpt lat="48.50282" lon="-2.67429">
        <ele>72</ele>
        <time>2020-01-25T15:17:37.000Z</time>
      </trkpt>
      <trkpt lat="48.50273" lon="-2.67424">
        <ele>74</ele>
        <time>2020-01-25T15:17:44.000Z</time>
      </trkpt>
      <trkpt lat="48.50263" lon="-2.67418">
        <ele>72</ele>
        <time>2020-01-25T15:17:51.000Z</time>
      </trkpt>
      <trkpt lat="48.50255" lon="-2.67411">
        <ele>72</ele>
        <time>2020-01-25T15:17:56.000Z</time>
      </trkpt>
      <trkpt lat="48.50247" lon="-2.67402">
        <ele>73</ele>
        <time>2020-01-25T15:18:03.000Z</time>
      </trkpt>
      <trkpt lat="48.50239" lon="-2.67395">
        <ele>72</ele>
        <time>2020-01-25T15:18:09.000Z</time>
      </trkpt>
      <trkpt lat="48.50232" lon="-2.67387">
        <ele>70</ele>
        <time>2020-01-25T15:18:14.000Z</time>
      </trkpt>
      <trkpt lat="48.50223" lon="-2.67379">
        <ele>72</ele>
        <time>2020-01-25T15:18:21.000Z</time>
      </trkpt>
      <trkpt lat="48.50215" lon="-2.67369">
        <ele>72</ele>
        <time>2020-01-25T15:18:28.000Z</time>
      </trkpt>
      <trkpt lat="48.50206" lon="-2.67363">
        <ele>72</ele>
        <time>2020-01-25T15:18:35.000Z</time>
      </trkpt>
      <trkpt lat="48.50197" lon="-2.67359">
        <ele>72</ele>
        <time>2020-01-25T15:18:41.000Z</time>
      </trkpt>
      <trkpt lat="48.50187" lon="-2.67359">
        <ele>73</ele>
        <time>2020-01-25T15:18:48.000Z</time>
      </trkpt>
      <trkpt lat="48.50178" lon="-2.67358">
        <ele>72</ele>
        <time>2020-01-25T15:18:55.000Z</time>
      </trkpt>
      <trkpt lat="48.5017" lon="-2.67366">
        <ele>73</ele>
        <time>2020-01-25T15:19:01.000Z</time>
      </trkpt>
      <trkpt lat="48.50162" lon="-2.67375">
        <ele>73</ele>
        <time>2020-01-25T15:19:08.000Z</time>
      </trkpt>
      <trkpt lat="48.50154" lon="-2.67383">
        <ele>73</ele>
        <time>2020-01-25T15:19:14.000Z</time>
      </trkpt>
      <trkpt lat="48.50147" lon="-2.67391">
        <ele>74</ele>
        <time>2020-01-25T15:19:20.000Z</time>
      </trkpt>
      <trkpt lat="48.50138" lon="-2.67396">
        <ele>72</ele>
        <time>2020-01-25T15:19:27.000Z</time>
      </trkpt>
      <trkpt lat="48.5013" lon="-2.67404">
        <ele>73</ele>
        <time>2020-01-25T15:19:33.000Z</time>
      </trkpt>
      <trkpt lat="48.50121" lon="-2.67411">
        <ele>73</ele>
        <time>2020-01-25T15:19:40.000Z</time>
      </trkpt>
      <trkpt lat="48.50112" lon="-2.6742">
        <ele>73</ele>
        <time>2020-01-25T15:19:47.000Z</time>
      </trkpt>
      <trkpt lat="48.50104" lon="-2.67427">
        <ele>73</ele>
        <time>2020-01-25T15:19:53.000Z</time>
      </trkpt>
      <trkpt lat="48.50095" lon="-2.67434">
        <ele>72</ele>
        <time>2020-01-25T15:20:00.000Z</time>
      </trkpt>
      <trkpt lat="48.50086" lon="-2.67442">
        <ele>73</ele>
        <time>2020-01-25T15:20:07.000Z</time>
      </trkpt>
      <trkpt lat="48.50077" lon="-2.6745">
        <ele>72</ele>
        <time>2020-01-25T15:20:13.000Z</time>
      </trkpt>
      <trkpt lat="48.50069" lon="-2.67459">
        <ele>72</ele>
        <time>2020-01-25T15:20:20.000Z</time>
      </trkpt>
      <trkpt lat="48.50061" lon="-2.67466">
        <ele>72</ele>
        <time>2020-01-25T15:20:26.000Z</time>
      </trkpt>
      <trkpt lat="48.50052" lon="-2.67471">
        <ele>72</ele>
        <time>2020-01-25T15:20:32.000Z</time>
      </trkpt>
      <trkpt lat="48.50041" lon="-2.67473">
        <ele>72</ele>
        <time>2020-01-25T15:20:39.000Z</time>
      </trkpt>
      <trkpt lat="48.50032" lon="-2.67474">
        <ele>71</ele>
        <time>2020-01-25T15:20:46.000Z</time>
      </trkpt>
      <trkpt lat="48.50021" lon="-2.67474">
        <ele>72</ele>
        <time>2020-01-25T15:20:53.000Z</time>
      </trkpt>
      <trkpt lat="48.5001" lon="-2.67474">
        <ele>72</ele>
        <time>2020-01-25T15:21:00.000Z</time>
      </trkpt>
      <trkpt lat="48.5" lon="-2.67475">
        <ele>73</ele>
        <time>2020-01-25T15:21:07.000Z</time>
      </trkpt>
      <trkpt lat="48.49991" lon="-2.67478">
        <ele>73</ele>
        <time>2020-01-25T15:21:13.000Z</time>
      </trkpt>
      <trkpt lat="48.49981" lon="-2.67478">
        <ele>72</ele>
        <time>2020-01-25T15:21:19.000Z</time>
      </trkpt>
      <trkpt lat="48.49971" lon="-2.67479">
        <ele>71</ele>
        <time>2020-01-25T15:21:25.000Z</time>
      </trkpt>
      <trkpt lat="48.49962" lon="-2.67481">
        <ele>71</ele>
        <time>2020-01-25T15:21:31.000Z</time>
      </trkpt>
      <trkpt lat="48.49953" lon="-2.67485">
        <ele>69</ele>
        <time>2020-01-25T15:21:38.000Z</time>
      </trkpt>
      <trkpt lat="48.49946" lon="-2.67495">
        <ele>66</ele>
        <time>2020-01-25T15:21:46.000Z</time>
      </trkpt>
      <trkpt lat="48.4994" lon="-2.67505">
        <ele>67</ele>
        <time>2020-01-25T15:21:52.000Z</time>
      </trkpt>
      <trkpt lat="48.49934" lon="-2.67516">
        <ele>67</ele>
        <time>2020-01-25T15:21:58.000Z</time>
      </trkpt>
      <trkpt lat="48.49927" lon="-2.67525">
        <ele>65</ele>
        <time>2020-01-25T15:22:06.000Z</time>
      </trkpt>
      <trkpt lat="48.49919" lon="-2.67536">
        <ele>65</ele>
        <time>2020-01-25T15:22:13.000Z</time>
      </trkpt>
      <trkpt lat="48.49914" lon="-2.67546">
        <ele>65</ele>
        <time>2020-01-25T15:22:19.000Z</time>
      </trkpt>
      <trkpt lat="48.49904" lon="-2.67548">
        <ele>64</ele>
        <time>2020-01-25T15:22:25.000Z</time>
      </trkpt>
      <trkpt lat="48.49896" lon="-2.67539">
        <ele>65</ele>
        <time>2020-01-25T15:22:33.000Z</time>
      </trkpt>
      <trkpt lat="48.4989" lon="-2.67528">
        <ele>66</ele>
        <time>2020-01-25T15:22:41.000Z</time>
      </trkpt>
      <trkpt lat="48.49884" lon="-2.67518">
        <ele>66</ele>
        <time>2020-01-25T15:22:48.000Z</time>
      </trkpt>
      <trkpt lat="48.49877" lon="-2.67506">
        <ele>67</ele>
        <time>2020-01-25T15:22:55.000Z</time>
      </trkpt>
      <trkpt lat="48.49871" lon="-2.67496">
        <ele>68</ele>
        <time>2020-01-25T15:23:02.000Z</time>
      </trkpt>
      <trkpt lat="48.49865" lon="-2.67484">
        <ele>69</ele>
        <time>2020-01-25T15:23:08.000Z</time>
      </trkpt>
      <trkpt lat="48.49859" lon="-2.67473">
        <ele>70</ele>
        <time>2020-01-25T15:23:14.000Z</time>
      </trkpt>
      <trkpt lat="48.49851" lon="-2.67462">
        <ele>70</ele>
        <time>2020-01-25T15:23:21.000Z</time>
      </trkpt>
      <trkpt lat="48.49845" lon="-2.67451">
        <ele>71</ele>
        <time>2020-01-25T15:23:27.000Z</time>
      </trkpt>
      <trkpt lat="48.49838" lon="-2.6744">
        <ele>71</ele>
        <time>2020-01-25T15:23:34.000Z</time>
      </trkpt>
      <trkpt lat="48.49832" lon="-2.67431">
        <ele>71</ele>
        <time>2020-01-25T15:23:40.000Z</time>
      </trkpt>
      <trkpt lat="48.49824" lon="-2.67421">
        <ele>71</ele>
        <time>2020-01-25T15:23:47.000Z</time>
      </trkpt>
      <trkpt lat="48.49816" lon="-2.67412">
        <ele>72</ele>
        <time>2020-01-25T15:23:54.000Z</time>
      </trkpt>
      <trkpt lat="48.49808" lon="-2.67404">
        <ele>72</ele>
        <time>2020-01-25T15:24:00.000Z</time>
      </trkpt>
      <trkpt lat="48.498" lon="-2.67396">
        <ele>74</ele>
        <time>2020-01-25T15:24:06.000Z</time>
      </trkpt>
      <trkpt lat="48.49794" lon="-2.67384">
        <ele>74</ele>
        <time>2020-01-25T15:24:13.000Z</time>
      </trkpt>
      <trkpt lat="48.49793" lon="-2.67369">
        <ele>74</ele>
        <time>2020-01-25T15:24:20.000Z</time>
      </trkpt>
      <trkpt lat="48.49793" lon="-2.67355">
        <ele>74</ele>
        <time>2020-01-25T15:24:27.000Z</time>
      </trkpt>
      <trkpt lat="48.49795" lon="-2.67341">
        <ele>74</ele>
        <time>2020-01-25T15:24:33.000Z</time>
      </trkpt>
      <trkpt lat="48.49794" lon="-2.67327">
        <ele>72</ele>
        <time>2020-01-25T15:24:45.000Z</time>
      </trkpt>
      <trkpt lat="48.49795" lon="-2.67312">
        <ele>73</ele>
        <time>2020-01-25T15:24:52.000Z</time>
      </trkpt>
      <trkpt lat="48.49795" lon="-2.67297">
        <ele>74</ele>
        <time>2020-01-25T15:24:59.000Z</time>
      </trkpt>
      <trkpt lat="48.49792" lon="-2.67283">
        <ele>74</ele>
        <time>2020-01-25T15:25:06.000Z</time>
      </trkpt>
      <trkpt lat="48.49788" lon="-2.6727">
        <ele>73</ele>
        <time>2020-01-25T15:25:12.000Z</time>
      </trkpt>
      <trkpt lat="48.49783" lon="-2.67258">
        <ele>74</ele>
        <time>2020-01-25T15:25:19.000Z</time>
      </trkpt>
      <trkpt lat="48.49776" lon="-2.67248">
        <ele>73</ele>
        <time>2020-01-25T15:25:25.000Z</time>
      </trkpt>
      <trkpt lat="48.4977" lon="-2.67236">
        <ele>73</ele>
        <time>2020-01-25T15:25:33.000Z</time>
      </trkpt>
      <trkpt lat="48.49763" lon="-2.67226">
        <ele>74</ele>
        <time>2020-01-25T15:25:40.000Z</time>
      </trkpt>
      <trkpt lat="48.49757" lon="-2.67216">
        <ele>73</ele>
        <time>2020-01-25T15:25:46.000Z</time>
      </trkpt>
      <trkpt lat="48.49751" lon="-2.67204">
        <ele>75</ele>
        <time>2020-01-25T15:25:53.000Z</time>
      </trkpt>
      <trkpt lat="48.49746" lon="-2.67191">
        <ele>73</ele>
        <time>2020-01-25T15:26:00.000Z</time>
      </trkpt>
      <trkpt lat="48.4974" lon="-2.6718">
        <ele>75</ele>
        <time>2020-01-25T15:26:06.000Z</time>
      </trkpt>
      <trkpt lat="48.49731" lon="-2.67171">
        <ele>74</ele>
        <time>2020-01-25T15:26:13.000Z</time>
      </trkpt>
      <trkpt lat="48.49724" lon="-2.6718">
        <ele>75</ele>
        <time>2020-01-25T15:26:20.000Z</time>
      </trkpt>
      <trkpt lat="48.4973" lon="-2.67169">
        <ele>76</ele>
        <time>2020-01-25T15:26:40.000Z</time>
      </trkpt>
      <trkpt lat="48.49735" lon="-2.67158">
        <ele>76</ele>
        <time>2020-01-25T15:26:46.000Z</time>
      </trkpt>
      <trkpt lat="48.49738" lon="-2.67145">
        <ele>76</ele>
        <time>2020-01-25T15:26:52.000Z</time>
      </trkpt>
      <trkpt lat="48.49742" lon="-2.67132">
        <ele>75</ele>
        <time>2020-01-25T15:26:58.000Z</time>
      </trkpt>
      <trkpt lat="48.49745" lon="-2.67119">
        <ele>75</ele>
        <time>2020-01-25T15:27:05.000Z</time>
      </trkpt>
      <trkpt lat="48.49748" lon="-2.67106">
        <ele>74</ele>
        <time>2020-01-25T15:27:12.000Z</time>
      </trkpt>
      <trkpt lat="48.49753" lon="-2.67092">
        <ele>73</ele>
        <time>2020-01-25T15:27:19.000Z</time>
      </trkpt>
      <trkpt lat="48.49756" lon="-2.67077">
        <ele>72</ele>
        <time>2020-01-25T15:27:27.000Z</time>
      </trkpt>
      <trkpt lat="48.49759" lon="-2.67063">
        <ele>73</ele>
        <time>2020-01-25T15:27:34.000Z</time>
      </trkpt>
      <trkpt lat="48.49754" lon="-2.67051">
        <ele>72</ele>
        <time>2020-01-25T15:27:41.000Z</time>
      </trkpt>
      <trkpt lat="48.49744" lon="-2.67048">
        <ele>72</ele>
        <time>2020-01-25T15:27:48.000Z</time>
      </trkpt>
      <trkpt lat="48.49735" lon="-2.67049">
        <ele>73</ele>
        <time>2020-01-25T15:27:54.000Z</time>
      </trkpt>
      <trkpt lat="48.49725" lon="-2.67049">
        <ele>73</ele>
        <time>2020-01-25T15:28:01.000Z</time>
      </trkpt>
      <trkpt lat="48.49715" lon="-2.67046">
        <ele>72</ele>
        <time>2020-01-25T15:28:08.000Z</time>
      </trkpt>
      <trkpt lat="48.49707" lon="-2.67041">
        <ele>73</ele>
        <time>2020-01-25T15:28:14.000Z</time>
      </trkpt>
      <trkpt lat="48.49701" lon="-2.6703">
        <ele>73</ele>
        <time>2020-01-25T15:28:20.000Z</time>
      </trkpt>
      <trkpt lat="48.49698" lon="-2.67015">
        <ele>71</ele>
        <time>2020-01-25T15:28:27.000Z</time>
      </trkpt>
      <trkpt lat="48.49695" lon="-2.67002">
        <ele>72</ele>
        <time>2020-01-25T15:28:33.000Z</time>
      </trkpt>
      <trkpt lat="48.49687" lon="-2.66993">
        <ele>73</ele>
        <time>2020-01-25T15:28:41.000Z</time>
      </trkpt>
      <trkpt lat="48.49678" lon="-2.66989">
        <ele>74</ele>
        <time>2020-01-25T15:28:48.000Z</time>
      </trkpt>
      <trkpt lat="48.49668" lon="-2.66986">
        <ele>74</ele>
        <time>2020-01-25T15:28:55.000Z</time>
      </trkpt>
      <trkpt lat="48.49659" lon="-2.66986">
        <ele>74</ele>
        <time>2020-01-25T15:29:01.000Z</time>
      </trkpt>
      <trkpt lat="48.4965" lon="-2.66984">
        <ele>75</ele>
        <time>2020-01-25T15:29:07.000Z</time>
      </trkpt>
      <trkpt lat="48.4964" lon="-2.66984">
        <ele>75</ele>
        <time>2020-01-25T15:29:13.000Z</time>
      </trkpt>
      <trkpt lat="48.4963" lon="-2.66984">
        <ele>76</ele>
        <time>2020-01-25T15:29:20.000Z</time>
      </trkpt>
      <trkpt lat="48.49619" lon="-2.66983">
        <ele>76</ele>
        <time>2020-01-25T15:29:27.000Z</time>
      </trkpt>
      <trkpt lat="48.49609" lon="-2.66985">
        <ele>77</ele>
        <time>2020-01-25T15:29:34.000Z</time>
      </trkpt>
      <trkpt lat="48.496" lon="-2.66985">
        <ele>77</ele>
        <time>2020-01-25T15:29:40.000Z</time>
      </trkpt>
      <trkpt lat="48.4959" lon="-2.66984">
        <ele>77</ele>
        <time>2020-01-25T15:29:47.000Z</time>
      </trkpt>
      <trkpt lat="48.4958" lon="-2.66984">
        <ele>77</ele>
        <time>2020-01-25T15:29:54.000Z</time>
      </trkpt>
      <trkpt lat="48.49571" lon="-2.66984">
        <ele>77</ele>
        <time>2020-01-25T15:30:16.000Z</time>
      </trkpt>
      <trkpt lat="48.49562" lon="-2.66982">
        <ele>76</ele>
        <time>2020-01-25T15:30:22.000Z</time>
      </trkpt>
      <trkpt lat="48.49552" lon="-2.66983">
        <ele>75</ele>
        <time>2020-01-25T15:30:28.000Z</time>
      </trkpt>
      <trkpt lat="48.49543" lon="-2.66984">
        <ele>74</ele>
        <time>2020-01-25T15:30:34.000Z</time>
      </trkpt>
      <trkpt lat="48.49533" lon="-2.66985">
        <ele>73</ele>
        <time>2020-01-25T15:30:41.000Z</time>
      </trkpt>
      <trkpt lat="48.49523" lon="-2.66984">
        <ele>72</ele>
        <time>2020-01-25T15:30:47.000Z</time>
      </trkpt>
      <trkpt lat="48.49514" lon="-2.66984">
        <ele>71</ele>
        <time>2020-01-25T15:30:53.000Z</time>
      </trkpt>
      <trkpt lat="48.49505" lon="-2.66982">
        <ele>71</ele>
        <time>2020-01-25T15:30:59.000Z</time>
      </trkpt>
      <trkpt lat="48.49494" lon="-2.66981">
        <ele>72</ele>
        <time>2020-01-25T15:31:06.000Z</time>
      </trkpt>
      <trkpt lat="48.49485" lon="-2.66982">
        <ele>70</ele>
        <time>2020-01-25T15:31:12.000Z</time>
      </trkpt>
      <trkpt lat="48.49475" lon="-2.66982">
        <ele>70</ele>
        <time>2020-01-25T15:31:19.000Z</time>
      </trkpt>
      <trkpt lat="48.49465" lon="-2.66983">
        <ele>70</ele>
        <time>2020-01-25T15:31:26.000Z</time>
      </trkpt>
      <trkpt lat="48.49455" lon="-2.66985">
        <ele>70</ele>
        <time>2020-01-25T15:31:33.000Z</time>
      </trkpt>
      <trkpt lat="48.49445" lon="-2.66989">
        <ele>69</ele>
        <time>2020-01-25T15:31:40.000Z</time>
      </trkpt>
      <trkpt lat="48.49436" lon="-2.66995">
        <ele>67</ele>
        <time>2020-01-25T15:31:47.000Z</time>
      </trkpt>
      <trkpt lat="48.49427" lon="-2.67003">
        <ele>66</ele>
        <time>2020-01-25T15:31:54.000Z</time>
      </trkpt>
      <trkpt lat="48.4942" lon="-2.67011">
        <ele>65</ele>
        <time>2020-01-25T15:32:01.000Z</time>
      </trkpt>
      <trkpt lat="48.49412" lon="-2.6702">
        <ele>65</ele>
        <time>2020-01-25T15:32:08.000Z</time>
      </trkpt>
      <trkpt lat="48.49405" lon="-2.67029">
        <ele>63</ele>
        <time>2020-01-25T15:32:15.000Z</time>
      </trkpt>
      <trkpt lat="48.49397" lon="-2.67037">
        <ele>62</ele>
        <time>2020-01-25T15:32:21.000Z</time>
      </trkpt>
      <trkpt lat="48.49388" lon="-2.67044">
        <ele>62</ele>
        <time>2020-01-25T15:32:28.000Z</time>
      </trkpt>
      <trkpt lat="48.49379" lon="-2.6705">
        <ele>62</ele>
        <time>2020-01-25T15:32:35.000Z</time>
      </trkpt>
      <trkpt lat="48.49369" lon="-2.67054">
        <ele>62</ele>
        <time>2020-01-25T15:32:42.000Z</time>
      </trkpt>
      <trkpt lat="48.49359" lon="-2.67059">
        <ele>62</ele>
        <time>2020-01-25T15:32:49.000Z</time>
      </trkpt>
      <trkpt lat="48.4935" lon="-2.67062">
        <ele>63</ele>
        <time>2020-01-25T15:32:55.000Z</time>
      </trkpt>
      <trkpt lat="48.49341" lon="-2.67062">
        <ele>62</ele>
        <time>2020-01-25T15:33:01.000Z</time>
      </trkpt>
      <trkpt lat="48.49331" lon="-2.67063">
        <ele>63</ele>
        <time>2020-01-25T15:33:09.000Z</time>
      </trkpt>
      <trkpt lat="48.49321" lon="-2.67066">
        <ele>61</ele>
        <time>2020-01-25T15:33:16.000Z</time>
      </trkpt>
      <trkpt lat="48.4931" lon="-2.67068">
        <ele>61</ele>
        <time>2020-01-25T15:33:23.000Z</time>
      </trkpt>
      <trkpt lat="48.493" lon="-2.67072">
        <ele>62</ele>
        <time>2020-01-25T15:33:30.000Z</time>
      </trkpt>
      <trkpt lat="48.49291" lon="-2.67075">
        <ele>61</ele>
        <time>2020-01-25T15:33:37.000Z</time>
      </trkpt>
      <trkpt lat="48.49281" lon="-2.67081">
        <ele>61</ele>
        <time>2020-01-25T15:33:44.000Z</time>
      </trkpt>
      <trkpt lat="48.49272" lon="-2.67077">
        <ele>61</ele>
        <time>2020-01-25T15:33:51.000Z</time>
      </trkpt>
      <trkpt lat="48.49263" lon="-2.67076">
        <ele>61</ele>
        <time>2020-01-25T15:33:58.000Z</time>
      </trkpt>
      <trkpt lat="48.49253" lon="-2.67077">
        <ele>62</ele>
        <time>2020-01-25T15:34:05.000Z</time>
      </trkpt>
      <trkpt lat="48.49244" lon="-2.67077">
        <ele>62</ele>
        <time>2020-01-25T15:34:11.000Z</time>
      </trkpt>
      <trkpt lat="48.49234" lon="-2.67076">
        <ele>61</ele>
        <time>2020-01-25T15:34:18.000Z</time>
      </trkpt>
      <trkpt lat="48.49225" lon="-2.67075">
        <ele>61</ele>
        <time>2020-01-25T15:34:24.000Z</time>
      </trkpt>
      <trkpt lat="48.49215" lon="-2.67072">
        <ele>60</ele>
        <time>2020-01-25T15:34:30.000Z</time>
      </trkpt>
      <trkpt lat="48.49204" lon="-2.67066">
        <ele>60</ele>
        <time>2020-01-25T15:34:38.000Z</time>
      </trkpt>
      <trkpt lat="48.49196" lon="-2.67059">
        <ele>58</ele>
        <time>2020-01-25T15:34:46.000Z</time>
      </trkpt>
      <trkpt lat="48.49188" lon="-2.67053">
        <ele>58</ele>
        <time>2020-01-25T15:34:53.000Z</time>
      </trkpt>
      <trkpt lat="48.49179" lon="-2.67047">
        <ele>58</ele>
        <time>2020-01-25T15:34:58.000Z</time>
      </trkpt>
      <trkpt lat="48.49171" lon="-2.67039">
        <ele>58</ele>
        <time>2020-01-25T15:35:05.000Z</time>
      </trkpt>
      <trkpt lat="48.49162" lon="-2.6703">
        <ele>58</ele>
        <time>2020-01-25T15:35:12.000Z</time>
      </trkpt>
      <trkpt lat="48.49155" lon="-2.6702">
        <ele>60</ele>
        <time>2020-01-25T15:35:22.000Z</time>
      </trkpt>
      <trkpt lat="48.49146" lon="-2.67012">
        <ele>60</ele>
        <time>2020-01-25T15:35:28.000Z</time>
      </trkpt>
      <trkpt lat="48.49137" lon="-2.67005">
        <ele>59</ele>
        <time>2020-01-25T15:35:34.000Z</time>
      </trkpt>
      <trkpt lat="48.49128" lon="-2.67">
        <ele>58</ele>
        <time>2020-01-25T15:35:40.000Z</time>
      </trkpt>
      <trkpt lat="48.49119" lon="-2.66995">
        <ele>54</ele>
        <time>2020-01-25T15:35:46.000Z</time>
      </trkpt>
      <trkpt lat="48.49109" lon="-2.66993">
        <ele>53</ele>
        <time>2020-01-25T15:35:52.000Z</time>
      </trkpt>
      <trkpt lat="48.49099" lon="-2.66991">
        <ele>54</ele>
        <time>2020-01-25T15:35:59.000Z</time>
      </trkpt>
      <trkpt lat="48.49089" lon="-2.66988">
        <ele>56</ele>
        <time>2020-01-25T15:36:06.000Z</time>
      </trkpt>
      <trkpt lat="48.4908" lon="-2.66986">
        <ele>58</ele>
        <time>2020-01-25T15:36:13.000Z</time>
      </trkpt>
      <trkpt lat="48.49071" lon="-2.66987">
        <ele>57</ele>
        <time>2020-01-25T15:36:20.000Z</time>
      </trkpt>
      <trkpt lat="48.49061" lon="-2.66983">
        <ele>59</ele>
        <time>2020-01-25T15:36:54.000Z</time>
      </trkpt>
      <trkpt lat="48.49051" lon="-2.6698">
        <ele>58</ele>
        <time>2020-01-25T15:37:00.000Z</time>
      </trkpt>
      <trkpt lat="48.49041" lon="-2.66979">
        <ele>58</ele>
        <time>2020-01-25T15:37:07.000Z</time>
      </trkpt>
      <trkpt lat="48.4903" lon="-2.66978">
        <ele>58</ele>
        <time>2020-01-25T15:37:14.000Z</time>
      </trkpt>
      <trkpt lat="48.4902" lon="-2.66977">
        <ele>57</ele>
        <time>2020-01-25T15:37:23.000Z</time>
      </trkpt>
      <trkpt lat="48.4901" lon="-2.66975">
        <ele>58</ele>
        <time>2020-01-25T15:37:30.000Z</time>
      </trkpt>
      <trkpt lat="48.48999" lon="-2.66973">
        <ele>58</ele>
        <time>2020-01-25T15:37:37.000Z</time>
      </trkpt>
      <trkpt lat="48.4899" lon="-2.6697">
        <ele>58</ele>
        <time>2020-01-25T15:37:44.000Z</time>
      </trkpt>
      <trkpt lat="48.4898" lon="-2.6697">
        <ele>58</ele>
        <time>2020-01-25T15:37:51.000Z</time>
      </trkpt>
      <trkpt lat="48.4897" lon="-2.66968">
        <ele>58</ele>
        <time>2020-01-25T15:37:58.000Z</time>
      </trkpt>
      <trkpt lat="48.48961" lon="-2.66967">
        <ele>58</ele>
        <time>2020-01-25T15:38:04.000Z</time>
      </trkpt>
      <trkpt lat="48.48951" lon="-2.66967">
        <ele>58</ele>
        <time>2020-01-25T15:38:11.000Z</time>
      </trkpt>
      <trkpt lat="48.48942" lon="-2.66968">
        <ele>59</ele>
        <time>2020-01-25T15:38:18.000Z</time>
      </trkpt>
      <trkpt lat="48.48931" lon="-2.66967">
        <ele>58</ele>
        <time>2020-01-25T15:38:26.000Z</time>
      </trkpt>
      <trkpt lat="48.4892" lon="-2.66967">
        <ele>58</ele>
        <time>2020-01-25T15:38:33.000Z</time>
      </trkpt>
      <trkpt lat="48.4891" lon="-2.66967">
        <ele>58</ele>
        <time>2020-01-25T15:38:40.000Z</time>
      </trkpt>
      <trkpt lat="48.489" lon="-2.66968">
        <ele>59</ele>
        <time>2020-01-25T15:38:47.000Z</time>
      </trkpt>
      <trkpt lat="48.4889" lon="-2.66966">
        <ele>59</ele>
        <time>2020-01-25T15:38:54.000Z</time>
      </trkpt>
      <trkpt lat="48.4888" lon="-2.66966">
        <ele>59</ele>
        <time>2020-01-25T15:39:01.000Z</time>
      </trkpt>
      <trkpt lat="48.48871" lon="-2.66965">
        <ele>60</ele>
        <time>2020-01-25T15:39:07.000Z</time>
      </trkpt>
      <trkpt lat="48.48861" lon="-2.66961">
        <ele>59</ele>
        <time>2020-01-25T15:39:15.000Z</time>
      </trkpt>
      <trkpt lat="48.48851" lon="-2.6696">
        <ele>59</ele>
        <time>2020-01-25T15:39:22.000Z</time>
      </trkpt>
      <trkpt lat="48.48842" lon="-2.66957">
        <ele>59</ele>
        <time>2020-01-25T15:39:29.000Z</time>
      </trkpt>
      <trkpt lat="48.48832" lon="-2.66952">
        <ele>59</ele>
        <time>2020-01-25T15:39:36.000Z</time>
      </trkpt>
      <trkpt lat="48.48823" lon="-2.66949">
        <ele>60</ele>
        <time>2020-01-25T15:39:42.000Z</time>
      </trkpt>
      <trkpt lat="48.48814" lon="-2.66945">
        <ele>60</ele>
        <time>2020-01-25T15:39:49.000Z</time>
      </trkpt>
      <trkpt lat="48.48805" lon="-2.66939">
        <ele>60</ele>
        <time>2020-01-25T15:39:56.000Z</time>
      </trkpt>
      <trkpt lat="48.48796" lon="-2.66933">
        <ele>59</ele>
        <time>2020-01-25T15:40:04.000Z</time>
      </trkpt>
      <trkpt lat="48.48787" lon="-2.66928">
        <ele>60</ele>
        <time>2020-01-25T15:40:10.000Z</time>
      </trkpt>
      <trkpt lat="48.48778" lon="-2.66923">
        <ele>60</ele>
        <time>2020-01-25T15:40:17.000Z</time>
      </trkpt>
      <trkpt lat="48.48768" lon="-2.66919">
        <ele>60</ele>
        <time>2020-01-25T15:40:24.000Z</time>
      </trkpt>
      <trkpt lat="48.48757" lon="-2.66913">
        <ele>61</ele>
        <time>2020-01-25T15:40:32.000Z</time>
      </trkpt>
      <trkpt lat="48.48748" lon="-2.66907">
        <ele>61</ele>
        <time>2020-01-25T15:40:39.000Z</time>
      </trkpt>
      <trkpt lat="48.48737" lon="-2.66903">
        <ele>61</ele>
        <time>2020-01-25T15:40:47.000Z</time>
      </trkpt>
      <trkpt lat="48.48727" lon="-2.66899">
        <ele>60</ele>
        <time>2020-01-25T15:40:55.000Z</time>
      </trkpt>
      <trkpt lat="48.48716" lon="-2.66897">
        <ele>60</ele>
        <time>2020-01-25T15:41:03.000Z</time>
      </trkpt>
      <trkpt lat="48.48705" lon="-2.66897">
        <ele>61</ele>
        <time>2020-01-25T15:41:11.000Z</time>
      </trkpt>
      <trkpt lat="48.48693" lon="-2.66899">
        <ele>61</ele>
        <time>2020-01-25T15:41:19.000Z</time>
      </trkpt>
      <trkpt lat="48.48684" lon="-2.66901">
        <ele>61</ele>
        <time>2020-01-25T15:41:26.000Z</time>
      </trkpt>
      <trkpt lat="48.48675" lon="-2.66903">
        <ele>61</ele>
        <time>2020-01-25T15:41:33.000Z</time>
      </trkpt>
      <trkpt lat="48.48666" lon="-2.66905">
        <ele>63</ele>
        <time>2020-01-25T15:41:40.000Z</time>
      </trkpt>
      <trkpt lat="48.48656" lon="-2.66907">
        <ele>64</ele>
        <time>2020-01-25T15:41:48.000Z</time>
      </trkpt>
      <trkpt lat="48.48647" lon="-2.6691">
        <ele>64</ele>
        <time>2020-01-25T15:41:55.000Z</time>
      </trkpt>
      <trkpt lat="48.48638" lon="-2.66911">
        <ele>64</ele>
        <time>2020-01-25T15:42:01.000Z</time>
      </trkpt>
      <trkpt lat="48.48628" lon="-2.6691">
        <ele>62</ele>
        <time>2020-01-25T15:42:07.000Z</time>
      </trkpt>
      <trkpt lat="48.48617" lon="-2.66913">
        <ele>62</ele>
        <time>2020-01-25T15:42:14.000Z</time>
      </trkpt>
      <trkpt lat="48.48607" lon="-2.66914">
        <ele>62</ele>
        <time>2020-01-25T15:42:20.000Z</time>
      </trkpt>
      <trkpt lat="48.48598" lon="-2.66917">
        <ele>62</ele>
        <time>2020-01-25T15:42:26.000Z</time>
      </trkpt>
      <trkpt lat="48.48588" lon="-2.66921">
        <ele>60</ele>
        <time>2020-01-25T15:42:33.000Z</time>
      </trkpt>
      <trkpt lat="48.4858" lon="-2.66927">
        <ele>54</ele>
        <time>2020-01-25T15:42:39.000Z</time>
      </trkpt>
      <trkpt lat="48.48571" lon="-2.66932">
        <ele>51</ele>
        <time>2020-01-25T15:42:46.000Z</time>
      </trkpt>
      <trkpt lat="48.48561" lon="-2.66934">
        <ele>49</ele>
        <time>2020-01-25T15:42:54.000Z</time>
      </trkpt>
      <trkpt lat="48.48551" lon="-2.66936">
        <ele>52</ele>
        <time>2020-01-25T15:43:02.000Z</time>
      </trkpt>
      <trkpt lat="48.48544" lon="-2.66946">
        <ele>48</ele>
        <time>2020-01-25T15:43:08.000Z</time>
      </trkpt>
      <trkpt lat="48.48538" lon="-2.66956">
        <ele>50</ele>
        <time>2020-01-25T15:43:15.000Z</time>
      </trkpt>
      <trkpt lat="48.48537" lon="-2.66972">
        <ele>51</ele>
        <time>2020-01-25T15:43:23.000Z</time>
      </trkpt>
      <trkpt lat="48.48538" lon="-2.66987">
        <ele>51</ele>
        <time>2020-01-25T15:43:31.000Z</time>
      </trkpt>
      <trkpt lat="48.48537" lon="-2.67001">
        <ele>53</ele>
        <time>2020-01-25T15:43:39.000Z</time>
      </trkpt>
      <trkpt lat="48.48537" lon="-2.67016">
        <ele>54</ele>
        <time>2020-01-25T15:43:47.000Z</time>
      </trkpt>
      <trkpt lat="48.48538" lon="-2.67031">
        <ele>53</ele>
        <time>2020-01-25T15:43:55.000Z</time>
      </trkpt>
      <trkpt lat="48.48533" lon="-2.67043">
        <ele>54</ele>
        <time>2020-01-25T15:44:03.000Z</time>
      </trkpt>
      <trkpt lat="48.48527" lon="-2.67055">
        <ele>56</ele>
        <time>2020-01-25T15:44:10.000Z</time>
      </trkpt>
      <trkpt lat="48.48524" lon="-2.67069">
        <ele>56</ele>
        <time>2020-01-25T15:44:16.000Z</time>
      </trkpt>
      <trkpt lat="48.48522" lon="-2.67084">
        <ele>57</ele>
        <time>2020-01-25T15:44:22.000Z</time>
      </trkpt>
      <trkpt lat="48.48513" lon="-2.67087">
        <ele>59</ele>
        <time>2020-01-25T15:44:29.000Z</time>
      </trkpt>
      <trkpt lat="48.48504" lon="-2.67084">
        <ele>58</ele>
        <time>2020-01-25T15:44:35.000Z</time>
      </trkpt>
      <trkpt lat="48.48493" lon="-2.67082">
        <ele>59</ele>
        <time>2020-01-25T15:44:41.000Z</time>
      </trkpt>
      <trkpt lat="48.48483" lon="-2.67081">
        <ele>60</ele>
        <time>2020-01-25T15:44:47.000Z</time>
      </trkpt>
      <trkpt lat="48.48473" lon="-2.67078">
        <ele>60</ele>
        <time>2020-01-25T15:44:53.000Z</time>
      </trkpt>
      <trkpt lat="48.48464" lon="-2.67075">
        <ele>62</ele>
        <time>2020-01-25T15:45:01.000Z</time>
      </trkpt>
      <trkpt lat="48.48457" lon="-2.67064">
        <ele>64</ele>
        <time>2020-01-25T15:45:08.000Z</time>
      </trkpt>
      <trkpt lat="48.4845" lon="-2.67056">
        <ele>63</ele>
        <time>2020-01-25T15:45:15.000Z</time>
      </trkpt>
      <trkpt lat="48.48443" lon="-2.67045">
        <ele>62</ele>
        <time>2020-01-25T15:45:25.000Z</time>
      </trkpt>
      <trkpt lat="48.48439" lon="-2.67034">
        <ele>63</ele>
        <time>2020-01-25T15:45:39.000Z</time>
      </trkpt>
      <trkpt lat="48.48429" lon="-2.67031">
        <ele>63</ele>
        <time>2020-01-25T15:45:47.000Z</time>
      </trkpt>
      <trkpt lat="48.48419" lon="-2.67027">
        <ele>63</ele>
        <time>2020-01-25T15:45:56.000Z</time>
      </trkpt>
      <trkpt lat="48.4841" lon="-2.67023">
        <ele>63</ele>
        <time>2020-01-25T15:46:04.000Z</time>
      </trkpt>
      <trkpt lat="48.48401" lon="-2.67023">
        <ele>64</ele>
        <time>2020-01-25T15:46:11.000Z</time>
      </trkpt>
      <trkpt lat="48.48392" lon="-2.67022">
        <ele>65</ele>
        <time>2020-01-25T15:46:20.000Z</time>
      </trkpt>
      <trkpt lat="48.48383" lon="-2.67019">
        <ele>64</ele>
        <time>2020-01-25T15:46:28.000Z</time>
      </trkpt>
      <trkpt lat="48.48373" lon="-2.67016">
        <ele>67</ele>
        <time>2020-01-25T15:46:37.000Z</time>
      </trkpt>
      <trkpt lat="48.48365" lon="-2.67009">
        <ele>67</ele>
        <time>2020-01-25T15:46:47.000Z</time>
      </trkpt>
      <trkpt lat="48.48356" lon="-2.67004">
        <ele>64</ele>
        <time>2020-01-25T15:46:54.000Z</time>
      </trkpt>
      <trkpt lat="48.48347" lon="-2.66999">
        <ele>65</ele>
        <time>2020-01-25T15:47:03.000Z</time>
      </trkpt>
      <trkpt lat="48.48337" lon="-2.67002">
        <ele>62</ele>
        <time>2020-01-25T15:47:10.000Z</time>
      </trkpt>
      <trkpt lat="48.48326" lon="-2.67003">
        <ele>60</ele>
        <time>2020-01-25T15:47:14.000Z</time>
      </trkpt>
      <trkpt lat="48.48317" lon="-2.6701">
        <ele>57</ele>
        <time>2020-01-25T15:47:20.000Z</time>
      </trkpt>
      <trkpt lat="48.48312" lon="-2.67021">
        <ele>57</ele>
        <time>2020-01-25T15:47:26.000Z</time>
      </trkpt>
      <trkpt lat="48.48306" lon="-2.67033">
        <ele>56</ele>
        <time>2020-01-25T15:47:33.000Z</time>
      </trkpt>
      <trkpt lat="48.48302" lon="-2.67046">
        <ele>57</ele>
        <time>2020-01-25T15:47:40.000Z</time>
      </trkpt>
      <trkpt lat="48.48299" lon="-2.67061">
        <ele>57</ele>
        <time>2020-01-25T15:47:47.000Z</time>
      </trkpt>
      <trkpt lat="48.48296" lon="-2.67076">
        <ele>58</ele>
        <time>2020-01-25T15:47:54.000Z</time>
      </trkpt>
      <trkpt lat="48.48294" lon="-2.6709">
        <ele>59</ele>
        <time>2020-01-25T15:48:00.000Z</time>
      </trkpt>
      <trkpt lat="48.48292" lon="-2.67104">
        <ele>56</ele>
        <time>2020-01-25T15:48:07.000Z</time>
      </trkpt>
      <trkpt lat="48.48289" lon="-2.67118">
        <ele>57</ele>
        <time>2020-01-25T15:48:14.000Z</time>
      </trkpt>
      <trkpt lat="48.48288" lon="-2.67132">
        <ele>56</ele>
        <time>2020-01-25T15:48:22.000Z</time>
      </trkpt>
      <trkpt lat="48.48285" lon="-2.67146">
        <ele>57</ele>
        <time>2020-01-25T15:48:29.000Z</time>
      </trkpt>
      <trkpt lat="48.48281" lon="-2.67159">
        <ele>60</ele>
        <time>2020-01-25T15:48:35.000Z</time>
      </trkpt>
    </trkseg>
  </trk>
</gpx>